Wetterdaten: Sonntag, 15.02.2015
Datum Zeit Temp. Aussen +5cm Feuchte Auss Luftdruck Regen Sonnenschein Regendauer Solar Windben
15.02.2015 00:00 4,2 C 1,1 C 85 % 1010,0 hPa 0,0 l/m 0 min 0 min 0 W/m 4,2 km/h (1 Bft)
15.02.2015 00:02 4,2 C 1,1 C 85 % 1010,0 hPa 0,0 l/m 0 min 0 min 0 W/m 4,2 km/h (1 Bft)
15.02.2015 00:06 4,1 C 0,6 C 85 % 1010,0 hPa 0,0 l/m 0 min 0 min 0 W/m 6,3 km/h (2 Bft)
15.02.2015 00:08 4,0 C 0,6 C 85 % 1010,0 hPa 0,0 l/m 0 min 0 min 0 W/m 6,3 km/h (2 Bft)
15.02.2015 00:10 3,9 C 0,6 C 85 % 1010,0 hPa 0,0 l/m 0 min 0 min 0 W/m 6,3 km/h (2 Bft)
15.02.2015 00:12 3,9 C 0,6 C 85 % 1010,0 hPa 0,0 l/m 0 min 0 min 0 W/m 6,3 km/h (2 Bft)
15.02.2015 00:14 3,9 C 0,6 C 85 % 1010,0 hPa 0,0 l/m 0 min 0 min 0 W/m 4,2 km/h (1 Bft)
15.02.2015 00:16 3,8 C 0,6 C 85 % 1010,1 hPa 0,0 l/m 0 min 0 min 0 W/m 6,3 km/h (2 Bft)
15.02.2015 00:18 3,8 C 0,6 C 85 % 1010,0 hPa 0,0 l/m 0 min 0 min 0 W/m 6,3 km/h (2 Bft)
15.02.2015 00:20 3,7 C 0,6 C 85 % 1010,0 hPa 0,0 l/m 0 min 0 min 0 W/m 6,3 km/h (2 Bft)
15.02.2015 00:22 3,7 C 0,6 C 85 % 1010,1 hPa 0,0 l/m 0 min 0 min 0 W/m 6,3 km/h (2 Bft)
15.02.2015 00:24 3,7 C 0,6 C 85 % 1010,0 hPa 0,0 l/m 0 min 0 min 0 W/m 6,3 km/h (2 Bft)
15.02.2015 00:26 3,6 C 0,0 C 85 % 1010,0 hPa 0,0 l/m 0 min 0 min 0 W/m 4,2 km/h (1 Bft)
15.02.2015 00:28 3,6 C 0,6 C 85 % 1009,9 hPa 0,0 l/m 0 min 0 min 0 W/m 6,3 km/h (2 Bft)
15.02.2015 00:30 3,5 C 0,6 C 86 % 1010,0 hPa 0,0 l/m 0 min 0 min 0 W/m 4,2 km/h (1 Bft)
15.02.2015 00:32 3,4 C 0,6 C 86 % 1009,9 hPa 0,0 l/m 0 min 0 min 0 W/m 4,2 km/h (1 Bft)
15.02.2015 00:34 3,4 C 0,6 C 86 % 1009,9 hPa 0,0 l/m 0 min 0 min 0 W/m 4,2 km/h (1 Bft)
15.02.2015 00:36 3,4 C 0,6 C 86 % 1010,0 hPa 0,0 l/m 0 min 0 min 0 W/m 4,2 km/h (1 Bft)
15.02.2015 00:38 3,3 C 0,6 C 86 % 1010,0 hPa 0,0 l/m 0 min 0 min 0 W/m 4,2 km/h (1 Bft)
15.02.2015 00:40 3,3 C 0,6 C 86 % 1010,0 hPa 0,0 l/m 0 min 0 min 0 W/m 4,2 km/h (1 Bft)
15.02.2015 00:42 3,3 C 0,6 C 86 % 1010,0 hPa 0,0 l/m 0 min 0 min 0 W/m 4,2 km/h (1 Bft)
15.02.2015 00:44 3,3 C 1,1 C 86 % 1010,0 hPa 0,0 l/m 0 min 0 min 0 W/m 6,3 km/h (2 Bft)
15.02.2015 00:46 3,2 C 1,1 C 86 % 1010,0 hPa 0,0 l/m 0 min 0 min 0 W/m 4,2 km/h (1 Bft)
15.02.2015 00:48 3,2 C 1,1 C 86 % 1010,1 hPa 0,0 l/m 0 min 0 min 0 W/m 4,2 km/h (1 Bft)
15.02.2015 00:50 3,2 C 1,1 C 87 % 1010,2 hPa 0,0 l/m 0 min 0 min 0 W/m 4,2 km/h (1 Bft)
15.02.2015 00:52 3,2 C 1,1 C 87 % 1010,1 hPa 0,0 l/m 0 min 0 min 0 W/m 6,3 km/h (2 Bft)
15.02.2015 00:54 3,2 C 1,1 C 87 % 1010,1 hPa 0,0 l/m 0 min 0 min 0 W/m 4,2 km/h (1 Bft)
15.02.2015 00:56 3,2 C 1,1 C 87 % 1010,1 hPa 0,0 l/m 0 min 0 min 0 W/m 6,3 km/h (2 Bft)
15.02.2015 00:58 3,2 C 1,1 C 87 % 1010,1 hPa 0,0 l/m 0 min 0 min 0 W/m 6,3 km/h (2 Bft)
15.02.2015 01:00 3,2 C 1,1 C 87 % 1009,9 hPa 0,0 l/m 0 min 0 min 0 W/m 10,5 km/h (2 Bft)
15.02.2015 01:02 3,1 C 1,7 C 87 % 1009,9 hPa 0,0 l/m 0 min 0 min 0 W/m 6,3 km/h (2 Bft)
15.02.2015 01:04 3,2 C 1,7 C 88 % 1010,0 hPa 0,0 l/m 0 min 0 min 0 W/m 12,6 km/h (3 Bft)
15.02.2015 01:06 3,2 C 1,7 C 88 % 1009,9 hPa 0,0 l/m 0 min 0 min 0 W/m 10,5 km/h (2 Bft)
15.02.2015 01:08 3,2 C 1,7 C 88 % 1009,9 hPa 0,0 l/m 0 min 0 min 0 W/m 10,5 km/h (2 Bft)
15.02.2015 01:10 3,2 C 1,7 C 88 % 1009,9 hPa 0,0 l/m 0 min 0 min 0 W/m 12,6 km/h (3 Bft)
15.02.2015 01:12 3,2 C 1,7 C 88 % 1010,0 hPa 0,0 l/m 0 min 0 min 0 W/m 12,6 km/h (3 Bft)
15.02.2015 01:14 3,2 C 1,7 C 89 % 1009,8 hPa 0,0 l/m 0 min 0 min 0 W/m 10,5 km/h (2 Bft)
15.02.2015 01:16 3,3 C 2,2 C 89 % 1009,9 hPa 0,0 l/m 0 min 0 min 0 W/m 14,6 km/h (3 Bft)
15.02.2015 01:18 3,3 C 2,2 C 89 % 1009,8 hPa 0,0 l/m 0 min 0 min 0 W/m 14,6 km/h (3 Bft)
15.02.2015 01:20 3,4 C 2,2 C 89 % 1009,8 hPa 0,0 l/m 0 min 0 min 0 W/m 10,5 km/h (2 Bft)
15.02.2015 01:22 3,4 C 2,2 C 89 % 1009,8 hPa 0,0 l/m 0 min 0 min 0 W/m 14,6 km/h (3 Bft)
15.02.2015 01:24 3,4 C 2,2 C 90 % 1009,8 hPa 0,0 l/m 0 min 0 min 0 W/m 16,7 km/h (3 Bft)
15.02.2015 01:26 3,5 C 2,2 C 90 % 1009,8 hPa 0,0 l/m 0 min 0 min 0 W/m 12,6 km/h (3 Bft)
15.02.2015 01:28 3,5 C 2,2 C 90 % 1009,9 hPa 0,0 l/m 0 min 0 min 0 W/m 10,5 km/h (2 Bft)
15.02.2015 01:30 3,6 C 2,2 C 90 % 1010,0 hPa 0,0 l/m 0 min 0 min 0 W/m 10,5 km/h (2 Bft)
15.02.2015 01:32 3,6 C 2,2 C 90 % 1009,9 hPa 0,0 l/m 0 min 0 min 0 W/m 12,6 km/h (3 Bft)
15.02.2015 01:34 3,6 C 2,2 C 90 % 1009,9 hPa 0,0 l/m 0 min 0 min 0 W/m 10,5 km/h (2 Bft)
15.02.2015 01:36 3,6 C 2,2 C 90 % 1009,9 hPa 0,0 l/m 0 min 0 min 0 W/m 10,5 km/h (2 Bft)
15.02.2015 01:38 3,7 C 2,2 C 90 % 1009,9 hPa 0,0 l/m 0 min 0 min 0 W/m 12,6 km/h (3 Bft)
15.02.2015 01:40 3,7 C 2,2 C 90 % 1009,9 hPa 0,0 l/m 0 min 0 min 0 W/m 10,5 km/h (2 Bft)
15.02.2015 01:42 3,7 C 2,2 C 90 % 1009,8 hPa 0,0 l/m 0 min 0 min 0 W/m 12,6 km/h (3 Bft)
15.02.2015 01:44 3,7 C 2,2 C 90 % 1009,9 hPa 0,0 l/m 0 min 0 min 0 W/m 10,5 km/h (2 Bft)
15.02.2015 01:46 3,7 C 2,2 C 90 % 1009,8 hPa 0,0 l/m 0 min 0 min 0 W/m 12,6 km/h (3 Bft)
15.02.2015 01:48 3,8 C 2,2 C 90 % 1009,8 hPa 0,0 l/m 0 min 0 min 0 W/m 12,6 km/h (3 Bft)
15.02.2015 01:50 3,8 C 2,2 C 90 % 1009,8 hPa 0,0 l/m 0 min 0 min 0 W/m 10,5 km/h (2 Bft)
15.02.2015 01:52 3,8 C 2,2 C 90 % 1009,8 hPa 0,0 l/m 0 min 0 min 0 W/m 12,6 km/h (3 Bft)
15.02.2015 01:54 3,9 C 2,2 C 90 % 1009,8 hPa 0,0 l/m 0 min 0 min 0 W/m 14,6 km/h (3 Bft)
15.02.2015 01:56 3,9 C 2,2 C 89 % 1009,8 hPa 0,0 l/m 0 min 0 min 0 W/m 14,6 km/h (3 Bft)
15.02.2015 01:58 3,9 C 2,2 C 89 % 1009,7 hPa 0,0 l/m 0 min 0 min 0 W/m 10,5 km/h (2 Bft)
15.02.2015 02:00 3,9 C 2,2 C 89 % 1009,8 hPa 0,0 l/m 0 min 0 min 0 W/m 12,6 km/h (3 Bft)
15.02.2015 02:02 3,9 C 2,2 C 89 % 1009,8 hPa 0,0 l/m 0 min 0 min 0 W/m 10,5 km/h (2 Bft)
15.02.2015 02:04 3,9 C 2,2 C 89 % 1009,8 hPa 0,0 l/m 0 min 0 min 0 W/m 12,6 km/h (3 Bft)
15.02.2015 02:06 3,9 C 2,2 C 89 % 1009,9 hPa 0,0 l/m 0 min 0 min 0 W/m 10,5 km/h (2 Bft)
15.02.2015 02:08 3,9 C 1,7 C 89 % 1009,8 hPa 0,0 l/m 0 min 0 min 0 W/m 12,6 km/h (3 Bft)
15.02.2015 02:10 3,9 C 1,7 C 89 % 1009,9 hPa 0,0 l/m 0 min 0 min 0 W/m 10,5 km/h (2 Bft)
15.02.2015 02:12 3,9 C 1,7 C 89 % 1009,9 hPa 0,0 l/m 0 min 0 min 0 W/m 12,6 km/h (3 Bft)
15.02.2015 02:14 3,9 C 1,7 C 89 % 1009,9 hPa 0,0 l/m 0 min 0 min 0 W/m 14,6 km/h (3 Bft)
15.02.2015 02:16 3,9 C 1,7 C 89 % 1009,8 hPa 0,0 l/m 0 min 0 min 0 W/m 14,6 km/h (3 Bft)
15.02.2015 02:18 3,8 C 1,7 C 89 % 1009,9 hPa 0,0 l/m 0 min 0 min 0 W/m 16,7 km/h (3 Bft)
15.02.2015 02:20 3,9 C 1,7 C 89 % 1009,9 hPa 0,0 l/m 0 min 0 min 0 W/m 12,6 km/h (3 Bft)
15.02.2015 02:22 3,9 C 2,2 C 89 % 1009,9 hPa 0,0 l/m 0 min 0 min 0 W/m 12,6 km/h (3 Bft)
15.02.2015 02:24 3,8 C 2,2 C 89 % 1010,0 hPa 0,0 l/m 0 min 0 min 0 W/m 12,6 km/h (3 Bft)
15.02.2015 02:26 3,8 C 2,2 C 89 % 1010,0 hPa 0,0 l/m 0 min 0 min 0 W/m 12,6 km/h (3 Bft)
15.02.2015 02:28 3,9 C 2,2 C 88 % 1010,0 hPa 0,0 l/m 0 min 0 min 0 W/m 12,6 km/h (3 Bft)
15.02.2015 02:30 3,9 C 2,2 C 88 % 1010,0 hPa 0,0 l/m 0 min 0 min 0 W/m 12,6 km/h (3 Bft)
15.02.2015 02:32 3,9 C 2,2 C 88 % 1010,0 hPa 0,0 l/m 0 min 0 min 0 W/m 10,5 km/h (2 Bft)
15.02.2015 02:34 3,9 C 2,2 C 88 % 1010,0 hPa 0,0 l/m 0 min 0 min 0 W/m 14,6 km/h (3 Bft)
15.02.2015 02:36 3,9 C 2,2 C 88 % 1010,0 hPa 0,0 l/m 0 min 0 min 0 W/m 10,5 km/h (2 Bft)
15.02.2015 02:38 3,9 C 2,2 C 88 % 1010,0 hPa 0,0 l/m 0 min 0 min 0 W/m 10,5 km/h (2 Bft)
15.02.2015 02:40 3,9 C 2,2 C 88 % 1010,0 hPa 0,0 l/m 0 min 0 min 0 W/m 8,4 km/h (2 Bft)
15.02.2015 02:42 3,9 C 2,2 C 88 % 1010,0 hPa 0,0 l/m 0 min 0 min 0 W/m 10,5 km/h (2 Bft)
15.02.2015 02:44 3,9 C 2,2 C 88 % 1010,0 hPa 0,0 l/m 0 min 0 min 0 W/m 8,4 km/h (2 Bft)
15.02.2015 02:46 3,9 C 2,2 C 88 % 1010,0 hPa 0,0 l/m 0 min 0 min 0 W/m 10,5 km/h (2 Bft)
15.02.2015 02:48 3,9 C 2,2 C 88 % 1009,9 hPa 0,0 l/m 0 min 0 min 0 W/m 14,6 km/h (3 Bft)
15.02.2015 02:50 3,9 C 2,2 C 88 % 1010,0 hPa 0,0 l/m 0 min 0 min 0 W/m 20,9 km/h (4 Bft)
15.02.2015 02:52 3,9 C 2,2 C 88 % 1010,0 hPa 0,0 l/m 0 min 0 min 0 W/m 16,7 km/h (3 Bft)
15.02.2015 02:54 3,9 C 2,2 C 88 % 1010,0 hPa 0,0 l/m 0 min 0 min 0 W/m 20,9 km/h (4 Bft)
15.02.2015 02:56 3,9 C 2,2 C 88 % 1010,0 hPa 0,0 l/m 0 min 0 min 0 W/m 16,7 km/h (3 Bft)
15.02.2015 02:58 3,9 C 2,8 C 88 % 1010,1 hPa 0,0 l/m 0 min 0 min 0 W/m 12,6 km/h (3 Bft)
15.02.2015 03:00 3,9 C 2,2 C 88 % 1010,1 hPa 0,0 l/m 0 min 0 min 0 W/m 14,6 km/h (3 Bft)
15.02.2015 03:02 3,9 C 2,2 C 88 % 1010,1 hPa 0,0 l/m 0 min 0 min 0 W/m 14,6 km/h (3 Bft)
15.02.2015 03:04 3,9 C 2,2 C 88 % 1010,1 hPa 0,0 l/m 0 min 0 min 0 W/m 12,6 km/h (3 Bft)
15.02.2015 03:06 3,9 C 2,2 C 88 % 1010,1 hPa 0,0 l/m 0 min 0 min 0 W/m 16,7 km/h (3 Bft)
15.02.2015 03:08 3,9 C 2,2 C 88 % 1010,0 hPa 0,0 l/m 0 min 0 min 0 W/m 14,6 km/h (3 Bft)
15.02.2015 03:10 3,9 C 2,2 C 88 % 1010,1 hPa 0,0 l/m 0 min 0 min 0 W/m 8,4 km/h (2 Bft)
15.02.2015 03:12 3,9 C 2,2 C 88 % 1010,1 hPa 0,0 l/m 0 min 0 min 0 W/m 8,4 km/h (2 Bft)
15.02.2015 03:14 3,9 C 2,2 C 88 % 1010,1 hPa 0,0 l/m 0 min 0 min 0 W/m 10,5 km/h (2 Bft)
15.02.2015 03:16 3,9 C 2,2 C 88 % 1010,2 hPa 0,0 l/m 0 min 0 min 0 W/m 6,3 km/h (2 Bft)
15.02.2015 03:18 3,9 C 2,2 C 88 % 1010,1 hPa 0,0 l/m 0 min 0 min 0 W/m 4,2 km/h (1 Bft)
15.02.2015 03:20 3,9 C 2,2 C 88 % 1010,2 hPa 0,0 l/m 0 min 0 min 0 W/m 6,3 km/h (2 Bft)
15.02.2015 03:22 3,9 C 2,2 C 88 % 1010,2 hPa 0,0 l/m 0 min 0 min 0 W/m 6,3 km/h (2 Bft)
15.02.2015 03:24 3,9 C 1,7 C 88 % 1010,3 hPa 0,0 l/m 0 min 0 min 0 W/m 8,4 km/h (2 Bft)
15.02.2015 03:26 3,9 C 1,7 C 87 % 1010,2 hPa 0,0 l/m 0 min 0 min 0 W/m 8,4 km/h (2 Bft)
15.02.2015 03:28 3,9 C 2,2 C 87 % 1010,3 hPa 0,0 l/m 0 min 0 min 0 W/m 8,4 km/h (2 Bft)
15.02.2015 03:30 3,9 C 2,2 C 87 % 1010,3 hPa 0,0 l/m 0 min 0 min 0 W/m 10,5 km/h (2 Bft)
15.02.2015 03:32 3,9 C 2,2 C 87 % 1010,3 hPa 0,0 l/m 0 min 0 min 0 W/m 6,3 km/h (2 Bft)
15.02.2015 03:34 3,9 C 2,2 C 87 % 1010,2 hPa 0,0 l/m 0 min 0 min 0 W/m 10,5 km/h (2 Bft)
15.02.2015 03:36 3,9 C 2,2 C 87 % 1010,2 hPa 0,0 l/m 0 min 0 min 0 W/m 14,6 km/h (3 Bft)
15.02.2015 03:38 3,8 C 2,2 C 87 % 1010,2 hPa 0,0 l/m 0 min 0 min 0 W/m 10,5 km/h (2 Bft)
15.02.2015 03:40 3,8 C 2,2 C 87 % 1010,2 hPa 0,0 l/m 0 min 0 min 0 W/m 8,4 km/h (2 Bft)
15.02.2015 03:42 3,8 C 2,2 C 87 % 1010,2 hPa 0,0 l/m 0 min 0 min 0 W/m 10,5 km/h (2 Bft)
15.02.2015 03:44 3,8 C 2,2 C 87 % 1010,2 hPa 0,0 l/m 0 min 0 min 0 W/m 8,4 km/h (2 Bft)
15.02.2015 03:46 3,8 C 2,2 C 87 % 1010,3 hPa 0,0 l/m 0 min 0 min 0 W/m 12,6 km/h (3 Bft)
15.02.2015 03:48 3,8 C 2,2 C 87 % 1010,2 hPa 0,0 l/m 0 min 0 min 0 W/m 10,5 km/h (2 Bft)
15.02.2015 03:50 3,8 C 2,2 C 87 % 1010,3 hPa 0,0 l/m 0 min 0 min 0 W/m 14,6 km/h (3 Bft)
15.02.2015 03:52 3,8 C 2,2 C 87 % 1010,2 hPa 0,0 l/m 0 min 0 min 0 W/m 10,5 km/h (2 Bft)
15.02.2015 03:54 3,8 C 1,7 C 87 % 1010,3 hPa 0,0 l/m 0 min 0 min 0 W/m 10,5 km/h (2 Bft)
15.02.2015 03:56 3,7 C 1,7 C 87 % 1010,3 hPa 0,0 l/m 0 min 0 min 0 W/m 14,6 km/h (3 Bft)
15.02.2015 03:58 3,7 C 1,7 C 87 % 1010,3 hPa 0,0 l/m 0 min 0 min 0 W/m 10,5 km/h (2 Bft)
15.02.2015 04:00 3,7 C 1,7 C 87 % 1010,3 hPa 0,0 l/m 0 min 0 min 0 W/m 10,5 km/h (2 Bft)
15.02.2015 04:02 3,7 C 1,7 C 87 % 1010,3 hPa 0,0 l/m 0 min 0 min 0 W/m 10,5 km/h (2 Bft)
15.02.2015 04:04 3,7 C 1,7 C 87 % 1010,3 hPa 0,0 l/m 0 min 0 min 0 W/m 12,6 km/h (3 Bft)
15.02.2015 04:06 3,7 C 1,7 C 87 % 1010,3 hPa 0,0 l/m 0 min 0 min 0 W/m 10,5 km/h (2 Bft)
15.02.2015 04:08 3,6 C 1,7 C 87 % 1010,3 hPa 0,0 l/m 0 min 0 min 0 W/m 8,4 km/h (2 Bft)
15.02.2015 04:10 3,6 C 1,7 C 87 % 1010,3 hPa 0,0 l/m 0 min 0 min 0 W/m 14,6 km/h (3 Bft)
15.02.2015 04:12 3,6 C 1,7 C 87 % 1010,3 hPa 0,0 l/m 0 min 0 min 0 W/m 8,4 km/h (2 Bft)
15.02.2015 04:14 3,6 C 1,1 C 87 % 1010,3 hPa 0,0 l/m 0 min 0 min 0 W/m 16,7 km/h (3 Bft)
15.02.2015 04:16 3,6 C 1,1 C 86 % 1010,3 hPa 0,0 l/m 0 min 0 min 0 W/m 6,3 km/h (2 Bft)
15.02.2015 04:18 3,6 C 1,1 C 86 % 1010,3 hPa 0,0 l/m 0 min 0 min 0 W/m 10,5 km/h (2 Bft)
15.02.2015 04:20 3,5 C 1,1 C 86 % 1010,3 hPa 0,0 l/m 0 min 0 min 0 W/m 10,5 km/h (2 Bft)
15.02.2015 04:22 3,5 C 1,1 C 86 % 1010,3 hPa 0,0 l/m 0 min 0 min 0 W/m 12,6 km/h (3 Bft)
15.02.2015 04:24 3,5 C 1,1 C 86 % 1010,3 hPa 0,0 l/m 0 min 0 min 0 W/m 12,6 km/h (3 Bft)
15.02.2015 04:26 3,4 C 1,1 C 86 % 1010,3 hPa 0,0 l/m 0 min 0 min 0 W/m 6,3 km/h (2 Bft)
15.02.2015 04:28 3,4 C 1,1 C 86 % 1010,4 hPa 0,0 l/m 0 min 0 min 0 W/m 8,4 km/h (2 Bft)
15.02.2015 04:30 3,4 C 1,1 C 86 % 1010,3 hPa 0,0 l/m 0 min 0 min 0 W/m 8,4 km/h (2 Bft)
15.02.2015 04:32 3,4 C 1,1 C 86 % 1010,4 hPa 0,0 l/m 0 min 0 min 0 W/m 6,3 km/h (2 Bft)
15.02.2015 04:34 3,4 C 1,1 C 86 % 1010,4 hPa 0,0 l/m 0 min 0 min 0 W/m 8,4 km/h (2 Bft)
15.02.2015 04:36 3,3 C 1,1 C 85 % 1010,4 hPa 0,0 l/m 0 min 0 min 0 W/m 8,4 km/h (2 Bft)
15.02.2015 04:38 3,3 C 0,6 C 85 % 1010,4 hPa 0,0 l/m 0 min 0 min 0 W/m 8,4 km/h (2 Bft)
15.02.2015 04:40 3,3 C 0,6 C 85 % 1010,4 hPa 0,0 l/m 0 min 0 min 0 W/m 10,5 km/h (2 Bft)
15.02.2015 04:42 3,3 C 0,6 C 85 % 1010,4 hPa 0,0 l/m 0 min 0 min 0 W/m 10,5 km/h (2 Bft)
15.02.2015 04:44 3,3 C 0,6 C 85 % 1010,4 hPa 0,0 l/m 0 min 0 min 0 W/m 6,3 km/h (2 Bft)
15.02.2015 04:46 3,2 C 0,6 C 85 % 1010,4 hPa 0,0 l/m 0 min 0 min 0 W/m 8,4 km/h (2 Bft)
15.02.2015 04:48 3,2 C 1,1 C 85 % 1010,4 hPa 0,0 l/m 0 min 0 min 0 W/m 10,5 km/h (2 Bft)
15.02.2015 04:50 3,2 C 0,6 C 85 % 1010,3 hPa 0,0 l/m 0 min 0 min 0 W/m 6,3 km/h (2 Bft)
15.02.2015 04:52 3,2 C 0,6 C 85 % 1010,4 hPa 0,0 l/m 0 min 0 min 0 W/m 4,2 km/h (1 Bft)
15.02.2015 04:54 3,1 C 0,6 C 85 % 1010,4 hPa 0,0 l/m 0 min 0 min 0 W/m 6,3 km/h (2 Bft)
15.02.2015 04:56 3,1 C 0,6 C 85 % 1010,4 hPa 0,0 l/m 0 min 0 min 0 W/m 10,5 km/h (2 Bft)
15.02.2015 04:58 3,1 C 0,6 C 85 % 1010,4 hPa 0,0 l/m 0 min 0 min 0 W/m 10,5 km/h (2 Bft)
15.02.2015 05:00 3,1 C 0,6 C 85 % 1010,5 hPa 0,0 l/m 0 min 0 min 0 W/m 6,3 km/h (2 Bft)
15.02.2015 05:02 3,1 C 0,6 C 85 % 1010,5 hPa 0,0 l/m 0 min 0 min 0 W/m 6,3 km/h (2 Bft)
15.02.2015 05:04 3,0 C 0,6 C 85 % 1010,5 hPa 0,0 l/m 0 min 0 min 0 W/m 10,5 km/h (2 Bft)
15.02.2015 05:06 3,0 C 0,6 C 85 % 1010,6 hPa 0,0 l/m 0 min 0 min 0 W/m 8,4 km/h (2 Bft)
15.02.2015 05:08 2,9 C 0,6 C 85 % 1010,5 hPa 0,0 l/m 0 min 0 min 0 W/m 8,4 km/h (2 Bft)
15.02.2015 05:10 2,9 C 0,6 C 85 % 1010,5 hPa 0,0 l/m 0 min 0 min 0 W/m 8,4 km/h (2 Bft)
15.02.2015 05:12 2,9 C 0,6 C 85 % 1010,6 hPa 0,0 l/m 0 min 0 min 0 W/m 8,4 km/h (2 Bft)
15.02.2015 05:14 2,9 C 0,6 C 85 % 1010,6 hPa 0,0 l/m 0 min 0 min 0 W/m 4,2 km/h (1 Bft)
15.02.2015 05:16 2,9 C 0,6 C 86 % 1010,6 hPa 0,0 l/m 0 min 0 min 0 W/m 10,5 km/h (2 Bft)
15.02.2015 05:18 2,8 C 0,6 C 86 % 1010,6 hPa 0,0 l/m 0 min 0 min 0 W/m 8,4 km/h (2 Bft)
15.02.2015 05:20 2,8 C 1,1 C 85 % 1010,6 hPa 0,0 l/m 0 min 0 min 0 W/m 8,4 km/h (2 Bft)
15.02.2015 05:22 2,8 C 1,1 C 86 % 1010,6 hPa 0,0 l/m 0 min 0 min 0 W/m 8,4 km/h (2 Bft)
15.02.2015 05:24 2,8 C 1,1 C 86 % 1010,6 hPa 0,0 l/m 0 min 0 min 0 W/m 10,5 km/h (2 Bft)
15.02.2015 05:26 2,8 C 1,1 C 86 % 1010,6 hPa 0,0 l/m 0 min 0 min 0 W/m 10,5 km/h (2 Bft)
15.02.2015 05:28 2,8 C 1,1 C 86 % 1010,7 hPa 0,0 l/m 0 min 0 min 0 W/m 10,5 km/h (2 Bft)
15.02.2015 05:30 2,8 C 1,1 C 86 % 1010,7 hPa 0,0 l/m 0 min 0 min 0 W/m 10,5 km/h (2 Bft)
15.02.2015 05:32 2,8 C 1,1 C 86 % 1010,7 hPa 0,0 l/m 0 min 0 min 0 W/m 12,6 km/h (3 Bft)
15.02.2015 05:34 2,8 C 1,1 C 86 % 1010,7 hPa 0,0 l/m 0 min 0 min 0 W/m 10,5 km/h (2 Bft)
15.02.2015 05:36 2,8 C 1,1 C 86 % 1010,7 hPa 0,0 l/m 0 min 0 min 0 W/m 10,5 km/h (2 Bft)
15.02.2015 05:38 2,8 C 1,1 C 86 % 1010,6 hPa 0,0 l/m 0 min 0 min 0 W/m 10,5 km/h (2 Bft)
15.02.2015 05:40 2,8 C 1,1 C 86 % 1010,7 hPa 0,0 l/m 0 min 0 min 0 W/m 6,3 km/h (2 Bft)
15.02.2015 05:42 2,8 C 1,7 C 86 % 1010,7 hPa 0,0 l/m 0 min 0 min 0 W/m 6,3 km/h (2 Bft)
15.02.2015 05:44 2,8 C 1,7 C 86 % 1010,7 hPa 0,0 l/m 0 min 0 min 0 W/m 6,3 km/h (2 Bft)
15.02.2015 05:46 2,8 C 1,7 C 86 % 1010,6 hPa 0,0 l/m 0 min 0 min 0 W/m 10,5 km/h (2 Bft)
15.02.2015 05:48 2,8 C 1,7 C 86 % 1010,6 hPa 0,0 l/m 0 min 0 min 0 W/m 8,4 km/h (2 Bft)
15.02.2015 05:50 2,8 C 1,7 C 86 % 1010,7 hPa 0,0 l/m 0 min 0 min 0 W/m 6,3 km/h (2 Bft)
15.02.2015 05:52 2,8 C 1,1 C 86 % 1010,7 hPa 0,0 l/m 0 min 0 min 0 W/m 10,5 km/h (2 Bft)
15.02.2015 05:54 2,8 C 1,1 C 86 % 1010,8 hPa 0,0 l/m 0 min 0 min 0 W/m 6,3 km/h (2 Bft)
15.02.2015 05:56 2,8 C 1,1 C 86 % 1010,8 hPa 0,0 l/m 0 min 0 min 0 W/m 6,3 km/h (2 Bft)
15.02.2015 05:58 2,8 C 1,1 C 86 % 1010,8 hPa 0,0 l/m 0 min 0 min 0 W/m 6,3 km/h (2 Bft)
15.02.2015 06:00 2,8 C 1,1 C 86 % 1010,8 hPa 0,0 l/m 0 min 0 min 0 W/m 4,2 km/h (1 Bft)
15.02.2015 06:02 2,8 C 1,1 C 86 % 1010,8 hPa 0,0 l/m 0 min 0 min 0 W/m 6,3 km/h (2 Bft)
15.02.2015 06:06 2,8 C 1,1 C 86 % 1010,8 hPa 0,0 l/m 0 min 0 min 0 W/m 6,3 km/h (2 Bft)
15.02.2015 06:08 2,8 C 1,1 C 86 % 1010,8 hPa 0,0 l/m 0 min 0 min 0 W/m 6,3 km/h (2 Bft)
15.02.2015 06:10 2,8 C 1,1 C 86 % 1010,8 hPa 0,0 l/m 0 min 0 min 0 W/m 6,3 km/h (2 Bft)
15.02.2015 06:12 2,8 C 1,1 C 86 % 1010,9 hPa 0,0 l/m 0 min 0 min 0 W/m 6,3 km/h (2 Bft)
15.02.2015 06:14 2,8 C 1,1 C 86 % 1010,9 hPa 0,0 l/m 0 min 0 min 0 W/m 6,3 km/h (2 Bft)
15.02.2015 06:16 2,8 C 0,6 C 86 % 1010,9 hPa 0,0 l/m 0 min 0 min 0 W/m 6,3 km/h (2 Bft)
15.02.2015 06:18 2,7 C 0,6 C 86 % 1010,9 hPa 0,0 l/m 0 min 0 min 0 W/m 6,3 km/h (2 Bft)
15.02.2015 06:20 2,7 C 0,6 C 86 % 1010,9 hPa 0,0 l/m 0 min 0 min 0 W/m 6,3 km/h (2 Bft)
15.02.2015 06:22 2,7 C 0,6 C 86 % 1010,9 hPa 0,0 l/m 0 min 0 min 0 W/m 6,3 km/h (2 Bft)
15.02.2015 06:24 2,7 C 0,0 C 86 % 1010,9 hPa 0,0 l/m 0 min 0 min 0 W/m 4,2 km/h (1 Bft)
15.02.2015 06:26 2,7 C 0,0 C 86 % 1010,8 hPa 0,0 l/m 0 min 0 min 0 W/m 6,3 km/h (2 Bft)
15.02.2015 06:28 2,7 C 0,0 C 86 % 1010,8 hPa 0,0 l/m 0 min 0 min 0 W/m 6,3 km/h (2 Bft)
15.02.2015 06:30 2,6 C 0,0 C 86 % 1010,8 hPa 0,0 l/m 0 min 0 min 0 W/m 6,3 km/h (2 Bft)
15.02.2015 06:32 2,6 C 0,0 C 86 % 1010,8 hPa 0,0 l/m 0 min 0 min 0 W/m 6,3 km/h (2 Bft)
15.02.2015 06:34 2,6 C 0,0 C 86 % 1010,8 hPa 0,0 l/m 0 min 0 min 0 W/m 4,2 km/h (1 Bft)
15.02.2015 06:36 2,5 C -0,6 C 86 % 1010,8 hPa 0,0 l/m 0 min 0 min 0 W/m 6,3 km/h (2 Bft)
15.02.2015 06:38 2,5 C -0,6 C 86 % 1010,8 hPa 0,0 l/m 0 min 0 min 0 W/m 4,2 km/h (1 Bft)
15.02.2015 06:40 2,4 C -0,6 C 86 % 1010,9 hPa 0,0 l/m 0 min 0 min 0 W/m 4,2 km/h (1 Bft)
15.02.2015 06:42 2,4 C -0,6 C 86 % 1010,9 hPa 0,0 l/m 0 min 0 min 0 W/m 4,2 km/h (1 Bft)
15.02.2015 06:44 2,4 C -0,6 C 86 % 1010,9 hPa 0,0 l/m 0 min 0 min 0 W/m 6,3 km/h (2 Bft)
15.02.2015 06:46 2,3 C -0,6 C 86 % 1011,0 hPa 0,0 l/m 0 min 0 min 0 W/m 4,2 km/h (1 Bft)
15.02.2015 06:48 2,3 C -0,6 C 86 % 1011,0 hPa 0,0 l/m 0 min 0 min 0 W/m 4,2 km/h (1 Bft)
15.02.2015 06:50 2,3 C -0,6 C 86 % 1011,0 hPa 0,0 l/m 0 min 0 min 0 W/m 2,1 km/h (1 Bft)
15.02.2015 06:52 2,2 C -0,6 C 86 % 1011,0 hPa 0,0 l/m 0 min 0 min 0 W/m 2,1 km/h (1 Bft)
15.02.2015 06:54 2,2 C -1,1 C 86 % 1011,0 hPa 0,0 l/m 0 min 0 min 0 W/m 2,1 km/h (1 Bft)
15.02.2015 06:56 2,1 C -1,1 C 86 % 1010,9 hPa 0,0 l/m 0 min 0 min 0 W/m 2,1 km/h (1 Bft)
15.02.2015 06:58 2,1 C -1,1 C 86 % 1011,0 hPa 0,0 l/m 0 min 0 min 0 W/m 4,2 km/h (1 Bft)
15.02.2015 07:00 2,0 C -1,1 C 86 % 1011,0 hPa 0,0 l/m 0 min 0 min 0 W/m 4,2 km/h (1 Bft)
15.02.2015 07:02 2,0 C -1,1 C 86 % 1011,1 hPa 0,0 l/m 0 min 0 min 0 W/m 2,1 km/h (1 Bft)
15.02.2015 07:04 1,9 C -1,1 C 86 % 1011,0 hPa 0,0 l/m 0 min 0 min 0 W/m 2,1 km/h (1 Bft)
15.02.2015 07:06 1,9 C -1,1 C 86 % 1011,1 hPa 0,0 l/m 0 min 0 min 0 W/m 4,2 km/h (1 Bft)
15.02.2015 07:08 1,8 C -1,7 C 85 % 1011,0 hPa 0,0 l/m 0 min 0 min 0 W/m 4,2 km/h (1 Bft)
15.02.2015 07:10 1,8 C -1,7 C 86 % 1011,0 hPa 0,0 l/m 0 min 0 min 0 W/m 2,1 km/h (1 Bft)
15.02.2015 07:12 1,7 C -1,7 C 86 % 1011,0 hPa 0,0 l/m 0 min 0 min 0 W/m 2,1 km/h (1 Bft)
15.02.2015 07:14 1,6 C -1,7 C 86 % 1011,0 hPa 0,0 l/m 0 min 0 min 0 W/m 2,1 km/h (1 Bft)
15.02.2015 07:16 1,6 C -1,7 C 85 % 1011,0 hPa 0,0 l/m 0 min 0 min 0 W/m 4,2 km/h (1 Bft)
15.02.2015 07:18 1,5 C -1,7 C 85 % 1011,0 hPa 0,0 l/m 0 min 0 min 0 W/m 4,2 km/h (1 Bft)
15.02.2015 07:20 1,4 C -1,7 C 85 % 1011,0 hPa 0,0 l/m 0 min 0 min 0 W/m 2,1 km/h (1 Bft)
15.02.2015 07:22 1,4 C -1,7 C 85 % 1011,0 hPa 0,0 l/m 0 min 0 min 0 W/m 2,1 km/h (1 Bft)
15.02.2015 07:24 1,3 C -1,7 C 86 % 1011,1 hPa 0,0 l/m 0 min 0 min 0 W/m 4,2 km/h (1 Bft)
15.02.2015 07:26 1,3 C -1,7 C 85 % 1011,1 hPa 0,0 l/m 0 min 0 min 0 W/m 4,2 km/h (1 Bft)
15.02.2015 07:28 1,3 C -1,7 C 86 % 1011,1 hPa 0,0 l/m 0 min 0 min 0 W/m 2,1 km/h (1 Bft)
15.02.2015 07:30 1,2 C -1,7 C 86 % 1011,2 hPa 0,0 l/m 0 min 0 min 0 W/m 4,2 km/h (1 Bft)
15.02.2015 07:32 1,2 C -1,7 C 86 % 1011,2 hPa 0,0 l/m 0 min 0 min 0 W/m 2,1 km/h (1 Bft)
15.02.2015 07:34 1,2 C -1,7 C 86 % 1011,2 hPa 0,0 l/m 0 min 0 min 0 W/m 2,1 km/h (1 Bft)
15.02.2015 07:36 1,1 C -1,7 C 86 % 1011,2 hPa 0,0 l/m 0 min 0 min 0 W/m 2,1 km/h (1 Bft)
15.02.2015 07:38 1,1 C -1,7 C 86 % 1011,3 hPa 0,0 l/m 0 min 0 min 0 W/m 2,1 km/h (1 Bft)
15.02.2015 07:40 1,0 C -1,7 C 86 % 1011,3 hPa 0,0 l/m 0 min 0 min 5 W/m 6,3 km/h (2 Bft)
15.02.2015 07:42 0,9 C -2,2 C 86 % 1011,3 hPa 0,0 l/m 0 min 0 min 5 W/m 4,2 km/h (1 Bft)
15.02.2015 07:44 0,9 C -2,2 C 86 % 1011,4 hPa 0,0 l/m 0 min 0 min 5 W/m 4,2 km/h (1 Bft)
15.02.2015 07:46 0,9 C -2,2 C 86 % 1011,5 hPa 0,0 l/m 0 min 0 min 7 W/m 2,1 km/h (1 Bft)
15.02.2015 07:48 0,8 C -2,2 C 86 % 1011,5 hPa 0,0 l/m 0 min 0 min 7 W/m 4,2 km/h (1 Bft)
15.02.2015 07:50 0,8 C -2,2 C 86 % 1011,5 hPa 0,0 l/m 0 min 0 min 8 W/m 4,2 km/h (1 Bft)
15.02.2015 07:52 0,7 C -1,7 C 86 % 1011,6 hPa 0,0 l/m 0 min 0 min 9 W/m 6,3 km/h (2 Bft)
15.02.2015 07:54 0,7 C -1,7 C 86 % 1011,6 hPa 0,0 l/m 0 min 0 min 10 W/m 6,3 km/h (2 Bft)
15.02.2015 07:56 0,7 C -1,7 C 87 % 1011,6 hPa 0,0 l/m 0 min 0 min 11 W/m 4,2 km/h (1 Bft)
15.02.2015 07:58 0,6 C -1,7 C 87 % 1011,7 hPa 0,0 l/m 0 min 0 min 12 W/m 4,2 km/h (1 Bft)
15.02.2015 08:00 0,6 C -1,7 C 87 % 1011,8 hPa 0,0 l/m 2 min 0 min 12 W/m 2,1 km/h (1 Bft)
15.02.2015 08:02 0,5 C -1,7 C 87 % 1011,9 hPa 0,0 l/m 2 min 0 min 14 W/m 4,2 km/h (1 Bft)
15.02.2015 08:04 0,5 C -1,7 C 87 % 1012,0 hPa 0,0 l/m 2 min 0 min 16 W/m 4,2 km/h (1 Bft)
15.02.2015 08:06 0,5 C -2,2 C 88 % 1012,0 hPa 0,0 l/m 2 min 0 min 17 W/m 4,2 km/h (1 Bft)
15.02.2015 08:08 0,5 C -2,2 C 88 % 1012,0 hPa 0,0 l/m 2 min 0 min 18 W/m 2,1 km/h (1 Bft)
15.02.2015 08:10 0,5 C -2,2 C 88 % 1012,1 hPa 0,0 l/m 0 min 0 min 20 W/m 2,1 km/h (1 Bft)
15.02.2015 08:12 0,5 C -2,2 C 88 % 1012,0 hPa 0,0 l/m 0 min 0 min 22 W/m 2,1 km/h (1 Bft)
15.02.2015 08:14 0,5 C -2,2 C 88 % 1012,0 hPa 0,0 l/m 0 min 0 min 25 W/m 4,2 km/h (1 Bft)
15.02.2015 08:16 0,4 C -2,2 C 88 % 1012,0 hPa 0,0 l/m 0 min 0 min 27 W/m 2,1 km/h (1 Bft)
15.02.2015 08:18 0,4 C -2,2 C 88 % 1012,0 hPa 0,0 l/m 2 min 0 min 32 W/m 4,2 km/h (1 Bft)
15.02.2015 08:20 0,4 C -2,2 C 88 % 1012,0 hPa 0,0 l/m 2 min 0 min 34 W/m 4,2 km/h (1 Bft)
15.02.2015 08:22 0,3 C -2,2 C 88 % 1012,1 hPa 0,0 l/m 2 min 0 min 38 W/m 4,2 km/h (1 Bft)
15.02.2015 08:24 0,3 C -2,2 C 88 % 1012,1 hPa 0,0 l/m 2 min 0 min 42 W/m 4,2 km/h (1 Bft)
15.02.2015 08:26 0,3 C -2,2 C 88 % 1012,2 hPa 0,0 l/m 2 min 0 min 46 W/m 4,2 km/h (1 Bft)
15.02.2015 08:28 0,3 C -1,7 C 88 % 1012,1 hPa 0,0 l/m 2 min 0 min 49 W/m 2,1 km/h (1 Bft)
15.02.2015 08:30 0,2 C -1,7 C 88 % 1012,1 hPa 0,0 l/m 2 min 0 min 52 W/m 2,1 km/h (1 Bft)
15.02.2015 08:32 0,2 C -1,7 C 88 % 1012,2 hPa 0,0 l/m 2 min 0 min 55 W/m 2,1 km/h (1 Bft)
15.02.2015 08:34 0,2 C -1,7 C 88 % 1012,2 hPa 0,0 l/m 2 min 0 min 60 W/m 2,1 km/h (1 Bft)
15.02.2015 08:36 0,2 C -1,7 C 88 % 1012,2 hPa 0,0 l/m 2 min 0 min 63 W/m 2,1 km/h (1 Bft)
15.02.2015 08:38 0,2 C -1,7 C 88 % 1012,2 hPa 0,0 l/m 2 min 0 min 65 W/m 2,1 km/h (1 Bft)
15.02.2015 08:40 0,1 C -1,7 C 88 % 1012,2 hPa 0,0 l/m 2 min 0 min 63 W/m 4,2 km/h (1 Bft)
15.02.2015 08:42 0,1 C -1,7 C 89 % 1012,3 hPa 0,0 l/m 2 min 0 min 67 W/m 4,2 km/h (1 Bft)
15.02.2015 08:44 0,1 C -1,7 C 89 % 1012,3 hPa 0,0 l/m 2 min 0 min 72 W/m 4,2 km/h (1 Bft)
15.02.2015 08:46 0,1 C -1,7 C 89 % 1012,3 hPa 0,0 l/m 2 min 0 min 77 W/m 4,2 km/h (1 Bft)
15.02.2015 08:48 0,1 C -1,7 C 89 % 1012,3 hPa 0,0 l/m 2 min 0 min 81 W/m 4,2 km/h (1 Bft)
15.02.2015 08:50 0,0 C -1,7 C 89 % 1012,3 hPa 0,0 l/m 2 min 0 min 85 W/m 4,2 km/h (1 Bft)
15.02.2015 08:52 0,0 C -1,7 C 89 % 1012,2 hPa 0,0 l/m 2 min 0 min 90 W/m 4,2 km/h (1 Bft)
15.02.2015 08:54 0,0 C -1,7 C 89 % 1012,3 hPa 0,0 l/m 2 min 0 min 93 W/m 4,2 km/h (1 Bft)
15.02.2015 08:56 0,0 C -1,7 C 89 % 1012,3 hPa 0,0 l/m 2 min 0 min 98 W/m 6,3 km/h (2 Bft)
15.02.2015 08:58 0,0 C -1,7 C 89 % 1012,3 hPa 0,0 l/m 2 min 0 min 102 W/m 6,3 km/h (2 Bft)
15.02.2015 09:00 0,0 C -1,1 C 89 % 1012,3 hPa 0,0 l/m 2 min 0 min 106 W/m 4,2 km/h (1 Bft)
15.02.2015 09:02 0,0 C -1,1 C 89 % 1012,3 hPa 0,0 l/m 2 min 0 min 111 W/m 4,2 km/h (1 Bft)
15.02.2015 09:04 0,0 C -1,1 C 89 % 1012,3 hPa 0,0 l/m 2 min 0 min 116 W/m 4,2 km/h (1 Bft)
15.02.2015 09:06 0,0 C -1,1 C 90 % 1012,3 hPa 0,0 l/m 2 min 0 min 121 W/m 4,2 km/h (1 Bft)
15.02.2015 09:08 0,0 C -1,1 C 90 % 1012,3 hPa 0,0 l/m 2 min 0 min 127 W/m 6,3 km/h (2 Bft)
15.02.2015 09:10 0,1 C -1,1 C 90 % 1012,3 hPa 0,0 l/m 2 min 0 min 131 W/m 10,5 km/h (2 Bft)
15.02.2015 09:12 0,1 C -0,6 C 90 % 1012,2 hPa 0,0 l/m 2 min 0 min 137 W/m 6,3 km/h (2 Bft)
15.02.2015 09:14 0,2 C -0,6 C 91 % 1012,3 hPa 0,0 l/m 2 min 0 min 142 W/m 4,2 km/h (1 Bft)
15.02.2015 09:16 0,2 C -0,6 C 91 % 1012,3 hPa 0,0 l/m 2 min 0 min 148 W/m 10,5 km/h (2 Bft)
15.02.2015 09:18 0,3 C -0,6 C 91 % 1012,3 hPa 0,0 l/m 2 min 0 min 153 W/m 8,4 km/h (2 Bft)
15.02.2015 09:20 0,4 C -0,6 C 91 % 1012,3 hPa 0,0 l/m 2 min 0 min 158 W/m 12,6 km/h (3 Bft)
15.02.2015 09:22 0,5 C 0,0 C 91 % 1012,3 hPa 0,0 l/m 2 min 0 min 164 W/m 10,5 km/h (2 Bft)
15.02.2015 09:24 0,5 C 0,0 C 92 % 1012,3 hPa 0,0 l/m 2 min 0 min 170 W/m 10,5 km/h (2 Bft)
15.02.2015 09:26 0,6 C 0,0 C 92 % 1012,3 hPa 0,0 l/m 2 min 0 min 175 W/m 12,6 km/h (3 Bft)
15.02.2015 09:28 0,7 C 0,0 C 92 % 1012,3 hPa 0,0 l/m 2 min 0 min 181 W/m 6,3 km/h (2 Bft)
15.02.2015 09:30 0,7 C 0,6 C 92 % 1012,3 hPa 0,0 l/m 2 min 0 min 185 W/m 10,5 km/h (2 Bft)
15.02.2015 09:32 0,9 C 0,6 C 92 % 1012,4 hPa 0,0 l/m 2 min 0 min 189 W/m 6,3 km/h (2 Bft)
15.02.2015 09:34 1,0 C 0,6 C 93 % 1012,4 hPa 0,0 l/m 2 min 0 min 196 W/m 6,3 km/h (2 Bft)
15.02.2015 09:36 1,1 C 0,6 C 93 % 1012,5 hPa 0,0 l/m 2 min 0 min 202 W/m 10,5 km/h (2 Bft)
15.02.2015 09:38 1,3 C 0,6 C 93 % 1012,4 hPa 0,0 l/m 2 min 0 min 206 W/m 10,5 km/h (2 Bft)
15.02.2015 09:40 1,4 C 1,1 C 93 % 1012,4 hPa 0,0 l/m 2 min 0 min 211 W/m 10,5 km/h (2 Bft)
15.02.2015 09:42 1,5 C 1,1 C 93 % 1012,4 hPa 0,0 l/m 2 min 0 min 217 W/m 8,4 km/h (2 Bft)
15.02.2015 09:44 1,6 C 1,1 C 93 % 1012,3 hPa 0,0 l/m 2 min 0 min 221 W/m 6,3 km/h (2 Bft)
15.02.2015 09:46 1,8 C 1,1 C 93 % 1012,4 hPa 0,0 l/m 2 min 0 min 227 W/m 10,5 km/h (2 Bft)
15.02.2015 09:48 1,9 C 1,1 C 93 % 1012,4 hPa 0,0 l/m 2 min 0 min 232 W/m 8,4 km/h (2 Bft)
15.02.2015 09:50 2,1 C 1,1 C 93 % 1012,4 hPa 0,0 l/m 2 min 0 min 234 W/m 10,5 km/h (2 Bft)
15.02.2015 09:52 2,2 C 1,1 C 94 % 1012,4 hPa 0,0 l/m 2 min 0 min 234 W/m 10,5 km/h (2 Bft)
15.02.2015 09:54 2,3 C 1,1 C 94 % 1012,3 hPa 0,0 l/m 2 min 0 min 242 W/m 12,6 km/h (3 Bft)
15.02.2015 09:56 2,5 C 1,7 C 93 % 1012,4 hPa 0,0 l/m 2 min 0 min 251 W/m 10,5 km/h (2 Bft)
15.02.2015 09:58 2,7 C 1,7 C 93 % 1012,4 hPa 0,0 l/m 2 min 0 min 256 W/m 6,3 km/h (2 Bft)
15.02.2015 10:00 2,8 C 1,7 C 93 % 1012,4 hPa 0,0 l/m 2 min 0 min 262 W/m 8,4 km/h (2 Bft)
15.02.2015 10:02 2,9 C 1,7 C 93 % 1012,3 hPa 0,0 l/m 2 min 0 min 268 W/m 4,2 km/h (1 Bft)
15.02.2015 10:04 3,1 C 1,7 C 93 % 1012,4 hPa 0,0 l/m 2 min 0 min 272 W/m 6,3 km/h (2 Bft)
15.02.2015 10:06 3,2 C 1,7 C 93 % 1012,4 hPa 0,0 l/m 2 min 0 min 275 W/m 10,5 km/h (2 Bft)
15.02.2015 10:08 3,3 C 1,7 C 93 % 1012,4 hPa 0,0 l/m 2 min 0 min 279 W/m 6,3 km/h (2 Bft)
15.02.2015 10:10 3,4 C 1,7 C 92 % 1012,4 hPa 0,0 l/m 2 min 0 min 283 W/m 4,2 km/h (1 Bft)
15.02.2015 10:12 3,6 C 1,7 C 92 % 1012,5 hPa 0,0 l/m 2 min 0 min 287 W/m 4,2 km/h (1 Bft)
15.02.2015 10:14 3,7 C 2,2 C 92 % 1012,5 hPa 0,0 l/m 2 min 0 min 288 W/m 6,3 km/h (2 Bft)
15.02.2015 10:16 3,7 C 2,2 C 91 % 1012,5 hPa 0,0 l/m 2 min 0 min 293 W/m 6,3 km/h (2 Bft)
15.02.2015 10:18 3,9 C 2,2 C 91 % 1012,6 hPa 0,0 l/m 2 min 0 min 296 W/m 6,3 km/h (2 Bft)
15.02.2015 10:20 4,0 C 2,2 C 91 % 1012,6 hPa 0,0 l/m 2 min 0 min 301 W/m 6,3 km/h (2 Bft)
15.02.2015 10:22 4,1 C 2,2 C 90 % 1012,6 hPa 0,0 l/m 2 min 0 min 304 W/m 6,3 km/h (2 Bft)
15.02.2015 10:24 4,2 C 2,2 C 90 % 1012,7 hPa 0,0 l/m 2 min 0 min 304 W/m 6,3 km/h (2 Bft)
15.02.2015 10:26 4,2 C 2,2 C 89 % 1012,7 hPa 0,0 l/m 2 min 0 min 306 W/m 4,2 km/h (1 Bft)
15.02.2015 10:28 4,3 C 2,2 C 89 % 1012,7 hPa 0,0 l/m 2 min 0 min 310 W/m 8,4 km/h (2 Bft)
15.02.2015 10:30 4,4 C 2,2 C 89 % 1012,7 hPa 0,0 l/m 2 min 0 min 315 W/m 6,3 km/h (2 Bft)
15.02.2015 10:32 4,5 C 2,2 C 88 % 1012,7 hPa 0,0 l/m 2 min 0 min 317 W/m 6,3 km/h (2 Bft)
15.02.2015 10:34 4,6 C 2,8 C 87 % 1012,8 hPa 0,0 l/m 2 min 0 min 322 W/m 6,3 km/h (2 Bft)
15.02.2015 10:36 4,7 C 2,8 C 87 % 1012,7 hPa 0,0 l/m 2 min 0 min 326 W/m 2,1 km/h (1 Bft)
15.02.2015 10:38 4,8 C 2,8 C 87 % 1012,8 hPa 0,0 l/m 2 min 0 min 329 W/m 4,2 km/h (1 Bft)
15.02.2015 10:40 4,8 C 2,8 C 86 % 1012,8 hPa 0,0 l/m 2 min 0 min 330 W/m 8,4 km/h (2 Bft)
15.02.2015 10:42 4,9 C 2,8 C 85 % 1012,8 hPa 0,0 l/m 2 min 0 min 336 W/m 8,4 km/h (2 Bft)
15.02.2015 10:44 5,0 C 3,3 C 85 % 1012,8 hPa 0,0 l/m 2 min 0 min 339 W/m 6,3 km/h (2 Bft)
15.02.2015 10:46 5,1 C 3,3 C 84 % 1012,9 hPa 0,0 l/m 2 min 0 min 342 W/m 6,3 km/h (2 Bft)
15.02.2015 10:48 5,2 C 3,3 C 84 % 1012,9 hPa 0,0 l/m 2 min 0 min 346 W/m 4,2 km/h (1 Bft)
15.02.2015 10:50 5,3 C 3,3 C 84 % 1012,9 hPa 0,0 l/m 2 min 0 min 348 W/m 2,1 km/h (1 Bft)
15.02.2015 10:52 5,4 C 3,3 C 83 % 1012,9 hPa 0,0 l/m 2 min 0 min 350 W/m 4,2 km/h (1 Bft)
15.02.2015 10:54 5,6 C 3,3 C 83 % 1012,9 hPa 0,0 l/m 2 min 0 min 354 W/m 6,3 km/h (2 Bft)
15.02.2015 10:56 5,7 C 3,3 C 82 % 1012,9 hPa 0,0 l/m 2 min 0 min 356 W/m 4,2 km/h (1 Bft)
15.02.2015 10:58 5,7 C 3,3 C 82 % 1012,9 hPa 0,0 l/m 2 min 0 min 361 W/m 4,2 km/h (1 Bft)
15.02.2015 11:00 5,8 C 3,3 C 81 % 1012,9 hPa 0,0 l/m 2 min 0 min 366 W/m 4,2 km/h (1 Bft)
15.02.2015 11:02 5,9 C 3,3 C 81 % 1012,9 hPa 0,0 l/m 2 min 0 min 364 W/m 4,2 km/h (1 Bft)
15.02.2015 11:04 5,9 C 3,3 C 80 % 1012,8 hPa 0,0 l/m 2 min 0 min 366 W/m 4,2 km/h (1 Bft)
15.02.2015 11:06 6,1 C 3,9 C 80 % 1012,8 hPa 0,0 l/m 2 min 0 min 369 W/m 6,3 km/h (2 Bft)
15.02.2015 11:08 6,2 C 3,9 C 79 % 1012,8 hPa 0,0 l/m 2 min 0 min 374 W/m 8,4 km/h (2 Bft)
15.02.2015 11:10 6,2 C 3,9 C 79 % 1012,8 hPa 0,0 l/m 2 min 0 min 377 W/m 6,3 km/h (2 Bft)
15.02.2015 11:12 6,3 C 3,9 C 78 % 1012,9 hPa 0,0 l/m 2 min 0 min 378 W/m 4,2 km/h (1 Bft)
15.02.2015 11:14 6,3 C 3,9 C 78 % 1012,9 hPa 0,0 l/m 2 min 0 min 381 W/m 6,3 km/h (2 Bft)
15.02.2015 11:16 6,3 C 3,9 C 78 % 1012,9 hPa 0,0 l/m 2 min 0 min 384 W/m 8,4 km/h (2 Bft)
15.02.2015 11:18 6,4 C 3,9 C 77 % 1012,9 hPa 0,0 l/m 2 min 0 min 387 W/m 6,3 km/h (2 Bft)
15.02.2015 11:20 6,4 C 3,9 C 77 % 1012,9 hPa 0,0 l/m 2 min 0 min 389 W/m 2,1 km/h (1 Bft)
15.02.2015 11:22 6,4 C 4,4 C 77 % 1012,9 hPa 0,0 l/m 2 min 0 min 392 W/m 6,3 km/h (2 Bft)
15.02.2015 11:24 6,5 C 4,4 C 77 % 1013,0 hPa 0,0 l/m 2 min 0 min 395 W/m 6,3 km/h (2 Bft)
15.02.2015 11:26 6,5 C 4,4 C 76 % 1013,0 hPa 0,0 l/m 2 min 0 min 397 W/m 4,2 km/h (1 Bft)
15.02.2015 11:28 6,6 C 4,4 C 76 % 1013,1 hPa 0,0 l/m 2 min 0 min 399 W/m 6,3 km/h (2 Bft)
15.02.2015 11:30 6,6 C 4,4 C 76 % 1013,1 hPa 0,0 l/m 2 min 0 min 401 W/m 6,3 km/h (2 Bft)
15.02.2015 11:32 6,7 C 4,4 C 76 % 1013,1 hPa 0,0 l/m 2 min 0 min 401 W/m 4,2 km/h (1 Bft)
15.02.2015 11:34 6,7 C 4,4 C 76 % 1013,1 hPa 0,0 l/m 2 min 0 min 402 W/m 6,3 km/h (2 Bft)
15.02.2015 11:36 6,7 C 4,4 C 76 % 1013,2 hPa 0,0 l/m 2 min 0 min 402 W/m 6,3 km/h (2 Bft)
15.02.2015 11:38 6,8 C 4,4 C 75 % 1013,3 hPa 0,0 l/m 2 min 0 min 404 W/m 6,3 km/h (2 Bft)
15.02.2015 11:40 6,8 C 4,4 C 75 % 1013,3 hPa 0,0 l/m 2 min 0 min 404 W/m 6,3 km/h (2 Bft)
15.02.2015 11:42 6,9 C 4,4 C 75 % 1013,3 hPa 0,0 l/m 2 min 0 min 406 W/m 6,3 km/h (2 Bft)
15.02.2015 11:44 6,9 C 4,4 C 75 % 1013,3 hPa 0,0 l/m 2 min 0 min 410 W/m 4,2 km/h (1 Bft)
15.02.2015 11:46 7,0 C 5,0 C 75 % 1013,3 hPa 0,0 l/m 2 min 0 min 413 W/m 8,4 km/h (2 Bft)
15.02.2015 11:48 7,1 C 5,0 C 75 % 1013,3 hPa 0,0 l/m 2 min 0 min 416 W/m 8,4 km/h (2 Bft)
15.02.2015 11:50 7,1 C 5,0 C 74 % 1013,3 hPa 0,0 l/m 2 min 0 min 416 W/m 10,5 km/h (2 Bft)
15.02.2015 11:52 7,2 C 5,0 C 74 % 1013,3 hPa 0,0 l/m 2 min 0 min 419 W/m 8,4 km/h (2 Bft)
15.02.2015 11:54 7,3 C 5,0 C 74 % 1013,3 hPa 0,0 l/m 2 min 0 min 424 W/m 10,5 km/h (2 Bft)
15.02.2015 11:56 7,3 C 5,0 C 74 % 1013,3 hPa 0,0 l/m 2 min 0 min 424 W/m 10,5 km/h (2 Bft)
15.02.2015 11:58 7,3 C 5,0 C 75 % 1013,3 hPa 0,0 l/m 2 min 0 min 425 W/m 8,4 km/h (2 Bft)
15.02.2015 12:00 7,4 C 5,0 C 74 % 1013,3 hPa 0,0 l/m 2 min 0 min 425 W/m 10,5 km/h (2 Bft)
15.02.2015 12:02 7,4 C 5,0 C 74 % 1013,3 hPa 0,0 l/m 2 min 0 min 424 W/m 10,5 km/h (2 Bft)
15.02.2015 12:06 7,4 C 5,6 C 74 % 1013,4 hPa 0,0 l/m 2 min 0 min 424 W/m 12,6 km/h (3 Bft)
15.02.2015 12:08 7,4 C 5,6 C 75 % 1013,4 hPa 0,0 l/m 2 min 0 min 429 W/m 6,3 km/h (2 Bft)
15.02.2015 12:10 7,5 C 5,6 C 74 % 1013,4 hPa 0,0 l/m 2 min 0 min 429 W/m 6,3 km/h (2 Bft)
15.02.2015 12:12 7,6 C 5,6 C 74 % 1013,4 hPa 0,0 l/m 2 min 0 min 428 W/m 10,5 km/h (2 Bft)
15.02.2015 12:14 7,7 C 5,6 C 74 % 1013,3 hPa 0,0 l/m 2 min 0 min 427 W/m 12,6 km/h (3 Bft)
15.02.2015 12:16 7,7 C 5,6 C 73 % 1013,4 hPa 0,0 l/m 2 min 0 min 426 W/m 14,6 km/h (3 Bft)
15.02.2015 12:18 7,7 C 5,6 C 73 % 1013,4 hPa 0,0 l/m 2 min 0 min 426 W/m 8,4 km/h (2 Bft)
15.02.2015 12:20 7,7 C 5,6 C 73 % 1013,4 hPa 0,0 l/m 2 min 0 min 427 W/m 14,6 km/h (3 Bft)
15.02.2015 12:22 7,7 C 5,6 C 73 % 1013,4 hPa 0,0 l/m 2 min 0 min 427 W/m 12,6 km/h (3 Bft)
15.02.2015 12:24 7,7 C 5,6 C 74 % 1013,3 hPa 0,0 l/m 2 min 0 min 431 W/m 8,4 km/h (2 Bft)
15.02.2015 12:26 7,7 C 5,6 C 74 % 1013,3 hPa 0,0 l/m 2 min 0 min 432 W/m 14,6 km/h (3 Bft)
15.02.2015 12:28 7,7 C 5,6 C 74 % 1013,3 hPa 0,0 l/m 2 min 0 min 427 W/m 14,6 km/h (3 Bft)
15.02.2015 12:30 7,6 C 5,6 C 74 % 1013,3 hPa 0,0 l/m 2 min 0 min 423 W/m 14,6 km/h (3 Bft)
15.02.2015 12:32 7,6 C 5,6 C 75 % 1013,3 hPa 0,0 l/m 2 min 0 min 426 W/m 12,6 km/h (3 Bft)
15.02.2015 12:34 7,6 C 5,6 C 75 % 1013,3 hPa 0,0 l/m 2 min 0 min 429 W/m 14,6 km/h (3 Bft)
15.02.2015 12:36 7,6 C 5,6 C 75 % 1013,2 hPa 0,0 l/m 2 min 0 min 434 W/m 10,5 km/h (2 Bft)
15.02.2015 12:38 7,6 C 5,6 C 76 % 1013,1 hPa 0,0 l/m 2 min 0 min 434 W/m 12,6 km/h (3 Bft)
15.02.2015 12:40 7,6 C 6,1 C 76 % 1013,1 hPa 0,0 l/m 2 min 0 min 434 W/m 10,5 km/h (2 Bft)
15.02.2015 12:42 7,7 C 6,1 C 76 % 1013,1 hPa 0,0 l/m 2 min 0 min 433 W/m 10,5 km/h (2 Bft)
15.02.2015 12:44 7,8 C 6,1 C 77 % 1013,0 hPa 0,0 l/m 2 min 0 min 429 W/m 10,5 km/h (2 Bft)
15.02.2015 12:46 7,9 C 6,1 C 77 % 1013,0 hPa 0,0 l/m 2 min 0 min 430 W/m 8,4 km/h (2 Bft)
15.02.2015 12:48 8,0 C 6,7 C 76 % 1012,9 hPa 0,0 l/m 2 min 0 min 430 W/m 14,6 km/h (3 Bft)
15.02.2015 12:50 8,1 C 6,1 C 76 % 1013,0 hPa 0,0 l/m 2 min 0 min 431 W/m 14,6 km/h (3 Bft)
15.02.2015 12:52 8,1 C 6,1 C 76 % 1013,0 hPa 0,0 l/m 2 min 0 min 429 W/m 8,4 km/h (2 Bft)
15.02.2015 12:54 8,2 C 6,7 C 76 % 1012,9 hPa 0,0 l/m 2 min 0 min 427 W/m 8,4 km/h (2 Bft)
15.02.2015 12:56 8,2 C 6,7 C 76 % 1012,9 hPa 0,0 l/m 2 min 0 min 429 W/m 8,4 km/h (2 Bft)
15.02.2015 12:58 8,3 C 6,7 C 76 % 1013,0 hPa 0,0 l/m 2 min 0 min 429 W/m 10,5 km/h (2 Bft)
15.02.2015 13:00 8,4 C 6,7 C 76 % 1013,0 hPa 0,0 l/m 2 min 0 min 424 W/m 10,5 km/h (2 Bft)
15.02.2015 13:02 8,5 C 6,7 C 76 % 1012,9 hPa 0,0 l/m 2 min 0 min 425 W/m 8,4 km/h (2 Bft)
15.02.2015 13:04 8,6 C 6,7 C 76 % 1013,0 hPa 0,0 l/m 2 min 0 min 428 W/m 10,5 km/h (2 Bft)
15.02.2015 13:06 8,6 C 6,7 C 75 % 1013,0 hPa 0,0 l/m 2 min 0 min 429 W/m 12,6 km/h (3 Bft)
15.02.2015 13:08 8,7 C 6,7 C 75 % 1013,0 hPa 0,0 l/m 2 min 0 min 423 W/m 14,6 km/h (3 Bft)
15.02.2015 13:10 8,7 C 6,7 C 75 % 1013,0 hPa 0,0 l/m 2 min 0 min 421 W/m 10,5 km/h (2 Bft)
15.02.2015 13:12 8,7 C 6,7 C 75 % 1013,0 hPa 0,0 l/m 2 min 0 min 425 W/m 12,6 km/h (3 Bft)
15.02.2015 13:14 8,8 C 6,7 C 75 % 1013,0 hPa 0,0 l/m 2 min 0 min 424 W/m 12,6 km/h (3 Bft)
15.02.2015 13:16 8,8 C 7,2 C 75 % 1012,9 hPa 0,0 l/m 2 min 0 min 420 W/m 16,7 km/h (3 Bft)
15.02.2015 13:18 8,8 C 7,2 C 74 % 1013,0 hPa 0,0 l/m 2 min 0 min 423 W/m 18,8 km/h (3 Bft)
15.02.2015 13:20 8,9 C 6,7 C 73 % 1013,0 hPa 0,0 l/m 2 min 0 min 422 W/m 14,6 km/h (3 Bft)
15.02.2015 13:22 8,9 C 6,7 C 73 % 1012,9 hPa 0,0 l/m 2 min 0 min 422 W/m 14,6 km/h (3 Bft)
15.02.2015 13:24 8,8 C 6,7 C 72 % 1012,9 hPa 0,0 l/m 2 min 0 min 422 W/m 12,6 km/h (3 Bft)
15.02.2015 13:26 8,8 C 6,7 C 73 % 1013,0 hPa 0,0 l/m 2 min 0 min 418 W/m 14,6 km/h (3 Bft)
15.02.2015 13:28 8,8 C 7,2 C 73 % 1012,9 hPa 0,0 l/m 2 min 0 min 420 W/m 16,7 km/h (3 Bft)
15.02.2015 13:30 8,9 C 7,2 C 73 % 1013,0 hPa 0,0 l/m 2 min 0 min 417 W/m 18,8 km/h (3 Bft)
15.02.2015 13:32 9,0 C 7,2 C 72 % 1013,0 hPa 0,0 l/m 2 min 0 min 416 W/m 12,6 km/h (3 Bft)
15.02.2015 13:34 9,1 C 7,2 C 72 % 1013,0 hPa 0,0 l/m 2 min 0 min 418 W/m 14,6 km/h (3 Bft)
15.02.2015 13:36 9,2 C 7,2 C 71 % 1012,9 hPa 0,0 l/m 2 min 0 min 412 W/m 16,7 km/h (3 Bft)
15.02.2015 13:38 9,3 C 7,2 C 71 % 1012,9 hPa 0,0 l/m 2 min 0 min 412 W/m 16,7 km/h (3 Bft)
15.02.2015 13:40 9,3 C 7,2 C 70 % 1012,9 hPa 0,0 l/m 2 min 0 min 411 W/m 16,7 km/h (3 Bft)
15.02.2015 13:42 9,4 C 7,2 C 70 % 1012,9 hPa 0,0 l/m 2 min 0 min 411 W/m 16,7 km/h (3 Bft)
15.02.2015 13:44 9,5 C 7,2 C 70 % 1012,9 hPa 0,0 l/m 2 min 0 min 410 W/m 14,6 km/h (3 Bft)
15.02.2015 13:46 9,6 C 7,2 C 69 % 1012,9 hPa 0,0 l/m 2 min 0 min 407 W/m 12,6 km/h (3 Bft)
15.02.2015 13:48 9,6 C 7,2 C 68 % 1012,9 hPa 0,0 l/m 2 min 0 min 405 W/m 10,5 km/h (2 Bft)
15.02.2015 13:50 9,6 C 7,2 C 68 % 1012,9 hPa 0,0 l/m 2 min 0 min 403 W/m 14,6 km/h (3 Bft)
15.02.2015 13:52 9,6 C 7,2 C 69 % 1012,9 hPa 0,0 l/m 2 min 0 min 400 W/m 14,6 km/h (3 Bft)
15.02.2015 13:54 9,6 C 7,2 C 69 % 1012,9 hPa 0,0 l/m 2 min 0 min 397 W/m 12,6 km/h (3 Bft)
15.02.2015 13:56 9,6 C 7,2 C 69 % 1013,0 hPa 0,0 l/m 2 min 0 min 389 W/m 8,4 km/h (2 Bft)
15.02.2015 13:58 9,6 C 7,2 C 69 % 1013,0 hPa 0,0 l/m 2 min 0 min 381 W/m 14,6 km/h (3 Bft)
15.02.2015 14:00 9,6 C 7,2 C 69 % 1013,0 hPa 0,0 l/m 2 min 0 min 382 W/m 12,6 km/h (3 Bft)
15.02.2015 14:02 9,6 C 7,2 C 69 % 1013,0 hPa 0,0 l/m 2 min 0 min 382 W/m 12,6 km/h (3 Bft)
15.02.2015 14:04 9,7 C 7,2 C 70 % 1013,0 hPa 0,0 l/m 2 min 0 min 381 W/m 12,6 km/h (3 Bft)
15.02.2015 14:06 9,7 C 7,2 C 69 % 1012,9 hPa 0,0 l/m 2 min 0 min 376 W/m 12,6 km/h (3 Bft)
15.02.2015 14:08 9,7 C 7,2 C 68 % 1013,0 hPa 0,0 l/m 2 min 0 min 375 W/m 12,6 km/h (3 Bft)
15.02.2015 14:10 9,8 C 7,2 C 68 % 1012,9 hPa 0,0 l/m 2 min 0 min 378 W/m 14,6 km/h (3 Bft)
15.02.2015 14:12 9,8 C 7,2 C 68 % 1012,9 hPa 0,0 l/m 2 min 0 min 379 W/m 12,6 km/h (3 Bft)
15.02.2015 14:14 9,7 C 7,2 C 68 % 1012,9 hPa 0,0 l/m 2 min 0 min 375 W/m 14,6 km/h (3 Bft)
15.02.2015 14:16 9,7 C 7,2 C 68 % 1012,9 hPa 0,0 l/m 2 min 0 min 375 W/m 14,6 km/h (3 Bft)
15.02.2015 14:18 9,7 C 7,2 C 68 % 1012,9 hPa 0,0 l/m 2 min 0 min 370 W/m 16,7 km/h (3 Bft)
15.02.2015 14:20 9,7 C 7,2 C 69 % 1012,8 hPa 0,0 l/m 2 min 0 min 368 W/m 18,8 km/h (3 Bft)
15.02.2015 14:22 9,7 C 7,2 C 67 % 1012,9 hPa 0,0 l/m 2 min 0 min 362 W/m 16,7 km/h (3 Bft)
15.02.2015 14:24 9,7 C 7,8 C 68 % 1012,9 hPa 0,0 l/m 2 min 0 min 359 W/m 18,8 km/h (3 Bft)
15.02.2015 14:26 9,7 C 7,8 C 68 % 1012,9 hPa 0,0 l/m 2 min 0 min 361 W/m 18,8 km/h (3 Bft)
15.02.2015 14:28 9,7 C 7,8 C 67 % 1012,9 hPa 0,0 l/m 2 min 0 min 356 W/m 14,6 km/h (3 Bft)
15.02.2015 14:30 9,7 C 7,8 C 67 % 1012,9 hPa 0,0 l/m 2 min 0 min 352 W/m 16,7 km/h (3 Bft)
15.02.2015 14:32 9,7 C 7,8 C 66 % 1012,9 hPa 0,0 l/m 2 min 0 min 344 W/m 18,8 km/h (3 Bft)
15.02.2015 14:34 9,7 C 7,8 C 66 % 1012,9 hPa 0,0 l/m 2 min 0 min 341 W/m 14,6 km/h (3 Bft)
15.02.2015 14:36 9,7 C 7,8 C 67 % 1012,9 hPa 0,0 l/m 2 min 0 min 340 W/m 18,8 km/h (3 Bft)
15.02.2015 14:38 9,7 C 7,8 C 67 % 1012,9 hPa 0,0 l/m 2 min 0 min 335 W/m 18,8 km/h (3 Bft)
15.02.2015 14:40 9,7 C 7,8 C 68 % 1013,0 hPa 0,0 l/m 2 min 0 min 336 W/m 18,8 km/h (3 Bft)
15.02.2015 14:42 9,8 C 7,8 C 67 % 1013,0 hPa 0,0 l/m 2 min 0 min 335 W/m 18,8 km/h (3 Bft)
15.02.2015 14:44 9,8 C 7,8 C 66 % 1013,0 hPa 0,0 l/m 2 min 0 min 328 W/m 18,8 km/h (3 Bft)
15.02.2015 14:46 9,8 C 7,8 C 65 % 1013,0 hPa 0,0 l/m 2 min 0 min 323 W/m 16,7 km/h (3 Bft)
15.02.2015 14:48 9,8 C 7,8 C 65 % 1013,0 hPa 0,0 l/m 2 min 0 min 320 W/m 16,7 km/h (3 Bft)
15.02.2015 14:50 9,7 C 7,8 C 65 % 1013,0 hPa 0,0 l/m 2 min 0 min 315 W/m 16,7 km/h (3 Bft)
15.02.2015 14:52 9,7 C 7,8 C 65 % 1013,0 hPa 0,0 l/m 2 min 0 min 309 W/m 16,7 km/h (3 Bft)
15.02.2015 14:54 9,7 C 7,8 C 65 % 1013,0 hPa 0,0 l/m 2 min 0 min 304 W/m 14,6 km/h (3 Bft)
15.02.2015 14:56 9,7 C 7,8 C 65 % 1013,0 hPa 0,0 l/m 2 min 0 min 304 W/m 18,8 km/h (3 Bft)
15.02.2015 14:58 9,7 C 7,8 C 65 % 1013,0 hPa 0,0 l/m 2 min 0 min 302 W/m 14,6 km/h (3 Bft)
15.02.2015 15:00 9,6 C 7,8 C 65 % 1013,0 hPa 0,0 l/m 2 min 0 min 298 W/m 18,8 km/h (3 Bft)
15.02.2015 15:02 9,6 C 7,8 C 66 % 1013,0 hPa 0,0 l/m 2 min 0 min 296 W/m 16,7 km/h (3 Bft)
15.02.2015 15:04 9,7 C 7,8 C 66 % 1013,0 hPa 0,0 l/m 2 min 0 min 292 W/m 16,7 km/h (3 Bft)
15.02.2015 15:06 9,7 C 7,8 C 67 % 1013,0 hPa 0,0 l/m 2 min 0 min 287 W/m 16,7 km/h (3 Bft)
15.02.2015 15:08 9,7 C 7,8 C 66 % 1013,0 hPa 0,0 l/m 2 min 0 min 281 W/m 14,6 km/h (3 Bft)
15.02.2015 15:10 9,8 C 7,8 C 66 % 1013,0 hPa 0,0 l/m 2 min 0 min 275 W/m 14,6 km/h (3 Bft)
15.02.2015 15:12 9,8 C 7,8 C 65 % 1013,0 hPa 0,0 l/m 2 min 0 min 267 W/m 14,6 km/h (3 Bft)
15.02.2015 15:14 9,8 C 7,8 C 65 % 1013,1 hPa 0,0 l/m 2 min 0 min 259 W/m 10,5 km/h (2 Bft)
15.02.2015 15:16 9,8 C 7,8 C 66 % 1013,1 hPa 0,0 l/m 2 min 0 min 256 W/m 12,6 km/h (3 Bft)
15.02.2015 15:18 9,8 C 7,8 C 66 % 1013,1 hPa 0,0 l/m 2 min 0 min 253 W/m 12,6 km/h (3 Bft)
15.02.2015 15:20 9,8 C 7,8 C 66 % 1013,1 hPa 0,0 l/m 2 min 0 min 251 W/m 12,6 km/h (3 Bft)
15.02.2015 15:22 9,9 C 7,8 C 66 % 1013,1 hPa 0,0 l/m 2 min 0 min 249 W/m 14,6 km/h (3 Bft)
15.02.2015 15:24 9,9 C 7,8 C 66 % 1013,0 hPa 0,0 l/m 2 min 0 min 243 W/m 14,6 km/h (3 Bft)
15.02.2015 15:26 9,9 C 7,8 C 65 % 1013,0 hPa 0,0 l/m 2 min 0 min 242 W/m 14,6 km/h (3 Bft)
15.02.2015 15:28 9,9 C 7,8 C 66 % 1013,1 hPa 0,0 l/m 2 min 0 min 239 W/m 14,6 km/h (3 Bft)
15.02.2015 15:30 9,9 C 7,8 C 65 % 1013,1 hPa 0,0 l/m 2 min 0 min 235 W/m 12,6 km/h (3 Bft)
15.02.2015 15:32 9,8 C 7,2 C 65 % 1013,1 hPa 0,0 l/m 2 min 0 min 230 W/m 14,6 km/h (3 Bft)
15.02.2015 15:34 9,8 C 7,8 C 65 % 1013,1 hPa 0,0 l/m 2 min 0 min 223 W/m 16,7 km/h (3 Bft)
15.02.2015 15:36 9,8 C 7,2 C 65 % 1013,1 hPa 0,0 l/m 2 min 0 min 214 W/m 14,6 km/h (3 Bft)
15.02.2015 15:38 9,7 C 7,2 C 65 % 1013,1 hPa 0,0 l/m 2 min 0 min 209 W/m 14,6 km/h (3 Bft)
15.02.2015 15:40 9,7 C 7,2 C 65 % 1013,1 hPa 0,0 l/m 2 min 0 min 206 W/m 16,7 km/h (3 Bft)
15.02.2015 15:42 9,7 C 7,2 C 65 % 1013,1 hPa 0,0 l/m 2 min 0 min 200 W/m 16,7 km/h (3 Bft)
15.02.2015 15:44 9,6 C 7,2 C 65 % 1013,1 hPa 0,0 l/m 2 min 0 min 195 W/m 16,7 km/h (3 Bft)
15.02.2015 15:46 9,6 C 7,2 C 65 % 1013,1 hPa 0,0 l/m 2 min 0 min 192 W/m 16,7 km/h (3 Bft)
15.02.2015 15:48 9,6 C 7,2 C 65 % 1013,1 hPa 0,0 l/m 2 min 0 min 187 W/m 12,6 km/h (3 Bft)
15.02.2015 15:50 9,6 C 7,2 C 65 % 1013,1 hPa 0,0 l/m 2 min 0 min 183 W/m 14,6 km/h (3 Bft)
15.02.2015 15:52 9,6 C 7,2 C 65 % 1013,0 hPa 0,0 l/m 2 min 0 min 177 W/m 14,6 km/h (3 Bft)
15.02.2015 15:54 9,6 C 7,2 C 65 % 1013,1 hPa 0,0 l/m 2 min 0 min 174 W/m 10,5 km/h (2 Bft)
15.02.2015 15:56 9,5 C 7,2 C 66 % 1013,1 hPa 0,0 l/m 2 min 0 min 169 W/m 16,7 km/h (3 Bft)
15.02.2015 15:58 9,6 C 7,2 C 66 % 1013,1 hPa 0,0 l/m 2 min 0 min 164 W/m 14,6 km/h (3 Bft)
15.02.2015 16:00 9,5 C 7,2 C 66 % 1013,1 hPa 0,0 l/m 2 min 0 min 160 W/m 14,6 km/h (3 Bft)
15.02.2015 16:02 9,4 C 7,2 C 66 % 1013,1 hPa 0,0 l/m 2 min 0 min 155 W/m 14,6 km/h (3 Bft)
15.02.2015 16:04 9,4 C 6,7 C 66 % 1013,1 hPa 0,0 l/m 2 min 0 min 151 W/m 16,7 km/h (3 Bft)
15.02.2015 16:06 9,3 C 7,2 C 66 % 1013,0 hPa 0,0 l/m 2 min 0 min 146 W/m 14,6 km/h (3 Bft)
15.02.2015 16:08 9,3 C 6,7 C 67 % 1013,1 hPa 0,0 l/m 2 min 0 min 141 W/m 12,6 km/h (3 Bft)
15.02.2015 16:10 9,3 C 6,7 C 67 % 1013,1 hPa 0,0 l/m 2 min 0 min 135 W/m 10,5 km/h (2 Bft)
15.02.2015 16:12 9,2 C 6,7 C 67 % 1013,1 hPa 0,0 l/m 2 min 0 min 129 W/m 14,6 km/h (3 Bft)
15.02.2015 16:14 9,2 C 6,7 C 68 % 1013,1 hPa 0,0 l/m 2 min 0 min 126 W/m 18,8 km/h (3 Bft)
15.02.2015 16:16 9,1 C 6,7 C 68 % 1013,0 hPa 0,0 l/m 2 min 0 min 121 W/m 20,9 km/h (4 Bft)
15.02.2015 16:18 9,1 C 6,7 C 68 % 1013,0 hPa 0,0 l/m 2 min 0 min 115 W/m 18,8 km/h (3 Bft)
15.02.2015 16:20 8,9 C 6,7 C 68 % 1013,0 hPa 0,0 l/m 2 min 0 min 111 W/m 20,9 km/h (4 Bft)
15.02.2015 16:22 8,9 C 6,7 C 68 % 1013,0 hPa 0,0 l/m 2 min 0 min 106 W/m 16,7 km/h (3 Bft)
15.02.2015 16:24 8,8 C 6,7 C 68 % 1013,0 hPa 0,0 l/m 2 min 0 min 102 W/m 16,7 km/h (3 Bft)
15.02.2015 16:26 8,8 C 6,7 C 68 % 1013,0 hPa 0,0 l/m 2 min 0 min 98 W/m 14,6 km/h (3 Bft)
15.02.2015 16:28 8,7 C 6,7 C 68 % 1013,0 hPa 0,0 l/m 2 min 0 min 96 W/m 18,8 km/h (3 Bft)
15.02.2015 16:30 8,7 C 6,1 C 68 % 1013,0 hPa 0,0 l/m 2 min 0 min 91 W/m 20,9 km/h (4 Bft)
15.02.2015 16:32 8,6 C 6,1 C 69 % 1013,0 hPa 0,0 l/m 2 min 0 min 87 W/m 16,7 km/h (3 Bft)
15.02.2015 16:34 8,6 C 6,1 C 69 % 1013,0 hPa 0,0 l/m 0 min 0 min 83 W/m 14,6 km/h (3 Bft)
15.02.2015 16:36 8,5 C 6,7 C 70 % 1013,1 hPa 0,0 l/m 0 min 0 min 79 W/m 14,6 km/h (3 Bft)
15.02.2015 16:38 8,4 C 6,1 C 70 % 1013,1 hPa 0,0 l/m 0 min 0 min 75 W/m 12,6 km/h (3 Bft)
15.02.2015 16:40 8,4 C 6,1 C 70 % 1013,1 hPa 0,0 l/m 0 min 0 min 71 W/m 14,6 km/h (3 Bft)
15.02.2015 16:42 8,4 C 6,1 C 71 % 1013,1 hPa 0,0 l/m 0 min 0 min 69 W/m 16,7 km/h (3 Bft)
15.02.2015 16:44 8,3 C 6,1 C 71 % 1013,1 hPa 0,0 l/m 0 min 0 min 65 W/m 18,8 km/h (3 Bft)
15.02.2015 16:46 8,3 C 6,1 C 71 % 1013,1 hPa 0,0 l/m 0 min 0 min 62 W/m 18,8 km/h (3 Bft)
15.02.2015 16:48 8,2 C 6,1 C 70 % 1013,1 hPa 0,0 l/m 0 min 0 min 60 W/m 18,8 km/h (3 Bft)
15.02.2015 16:50 8,2 C 5,6 C 70 % 1013,1 hPa 0,0 l/m 0 min 0 min 57 W/m 16,7 km/h (3 Bft)
15.02.2015 16:52 8,1 C 5,6 C 70 % 1013,2 hPa 0,0 l/m 0 min 0 min 54 W/m 12,6 km/h (3 Bft)
15.02.2015 16:54 8,1 C 5,6 C 71 % 1013,1 hPa 0,0 l/m 0 min 0 min 52 W/m 12,6 km/h (3 Bft)
15.02.2015 16:56 8,1 C 5,6 C 71 % 1013,2 hPa 0,0 l/m 0 min 0 min 49 W/m 14,6 km/h (3 Bft)
15.02.2015 16:58 8,0 C 5,6 C 71 % 1013,2 hPa 0,0 l/m 0 min 0 min 46 W/m 10,5 km/h (2 Bft)
15.02.2015 17:00 7,9 C 5,6 C 72 % 1013,2 hPa 0,0 l/m 0 min 0 min 43 W/m 14,6 km/h (3 Bft)
15.02.2015 17:02 7,9 C 5,6 C 72 % 1013,2 hPa 0,0 l/m 0 min 0 min 41 W/m 12,6 km/h (3 Bft)
15.02.2015 17:04 7,8 C 5,6 C 72 % 1013,3 hPa 0,0 l/m 0 min 0 min 39 W/m 10,5 km/h (2 Bft)
15.02.2015 17:06 7,8 C 5,6 C 73 % 1013,2 hPa 0,0 l/m 0 min 0 min 37 W/m 12,6 km/h (3 Bft)
15.02.2015 17:08 7,8 C 5,0 C 73 % 1013,3 hPa 0,0 l/m 0 min 0 min 35 W/m 12,6 km/h (3 Bft)
15.02.2015 17:10 7,7 C 5,6 C 73 % 1013,2 hPa 0,0 l/m 0 min 0 min 34 W/m 14,6 km/h (3 Bft)
15.02.2015 17:12 7,7 C 5,6 C 73 % 1013,3 hPa 0,0 l/m 0 min 0 min 33 W/m 10,5 km/h (2 Bft)
15.02.2015 17:14 7,6 C 5,6 C 73 % 1013,3 hPa 0,0 l/m 0 min 0 min 31 W/m 14,6 km/h (3 Bft)
15.02.2015 17:16 7,6 C 5,0 C 73 % 1013,3 hPa 0,0 l/m 0 min 0 min 30 W/m 12,6 km/h (3 Bft)
15.02.2015 17:18 7,5 C 5,0 C 73 % 1013,3 hPa 0,0 l/m 0 min 0 min 28 W/m 16,7 km/h (3 Bft)
15.02.2015 17:20 7,5 C 5,0 C 73 % 1013,3 hPa 0,0 l/m 0 min 0 min 26 W/m 14,6 km/h (3 Bft)
15.02.2015 17:22 7,4 C 5,0 C 73 % 1013,3 hPa 0,0 l/m 0 min 0 min 25 W/m 14,6 km/h (3 Bft)
15.02.2015 17:24 7,4 C 5,0 C 73 % 1013,3 hPa 0,0 l/m 0 min 0 min 23 W/m 14,6 km/h (3 Bft)
15.02.2015 17:26 7,3 C 5,0 C 73 % 1013,3 hPa 0,0 l/m 0 min 0 min 22 W/m 10,5 km/h (2 Bft)
15.02.2015 17:28 7,3 C 5,0 C 74 % 1013,3 hPa 0,0 l/m 2 min 0 min 20 W/m 10,5 km/h (2 Bft)
15.02.2015 17:30 7,2 C 4,4 C 74 % 1013,3 hPa 0,0 l/m 2 min 0 min 19 W/m 12,6 km/h (3 Bft)
15.02.2015 17:32 7,2 C 4,4 C 74 % 1013,3 hPa 0,0 l/m 2 min 0 min 17 W/m 8,4 km/h (2 Bft)
15.02.2015 17:34 7,1 C 4,4 C 74 % 1013,3 hPa 0,0 l/m 2 min 0 min 15 W/m 10,5 km/h (2 Bft)
15.02.2015 17:36 7,1 C 4,4 C 74 % 1013,4 hPa 0,0 l/m 2 min 0 min 14 W/m 10,5 km/h (2 Bft)
15.02.2015 17:38 6,9 C 4,4 C 74 % 1013,4 hPa 0,0 l/m 0 min 0 min 12 W/m 14,6 km/h (3 Bft)
15.02.2015 17:40 6,9 C 4,4 C 75 % 1013,4 hPa 0,0 l/m 0 min 0 min 12 W/m 14,6 km/h (3 Bft)
15.02.2015 17:42 6,8 C 4,4 C 75 % 1013,4 hPa 0,0 l/m 0 min 0 min 11 W/m 14,6 km/h (3 Bft)
15.02.2015 17:44 6,8 C 3,9 C 75 % 1013,4 hPa 0,0 l/m 0 min 0 min 10 W/m 12,6 km/h (3 Bft)
15.02.2015 17:46 6,7 C 3,9 C 75 % 1013,4 hPa 0,0 l/m 0 min 0 min 9 W/m 10,5 km/h (2 Bft)
15.02.2015 17:48 6,7 C 3,9 C 75 % 1013,4 hPa 0,0 l/m 0 min 0 min 7 W/m 10,5 km/h (2 Bft)
15.02.2015 17:50 6,6 C 3,9 C 76 % 1013,5 hPa 0,0 l/m 0 min 0 min 7 W/m 12,6 km/h (3 Bft)
15.02.2015 17:52 6,6 C 3,3 C 76 % 1013,5 hPa 0,0 l/m 0 min 0 min 6 W/m 10,5 km/h (2 Bft)
15.02.2015 17:54 6,5 C 3,3 C 76 % 1013,5 hPa 0,0 l/m 0 min 0 min 5 W/m 10,5 km/h (2 Bft)
15.02.2015 17:56 6,4 C 3,3 C 76 % 1013,7 hPa 0,0 l/m 0 min 0 min 5 W/m 10,5 km/h (2 Bft)
15.02.2015 17:58 6,4 C 3,3 C 76 % 1013,6 hPa 0,0 l/m 0 min 0 min 4 W/m 8,4 km/h (2 Bft)
15.02.2015 18:00 6,4 C 2,8 C 76 % 1013,7 hPa 0,0 l/m 0 min 0 min 0 W/m 8,4 km/h (2 Bft)
15.02.2015 18:02 6,3 C 2,8 C 76 % 1013,8 hPa 0,0 l/m 0 min 0 min 0 W/m 6,3 km/h (2 Bft)
15.02.2015 18:04 6,2 C 2,8 C 77 % 1013,8 hPa 0,0 l/m 0 min 0 min 0 W/m 6,3 km/h (2 Bft)
15.02.2015 18:06 6,2 C 2,8 C 77 % 1013,8 hPa 0,0 l/m 0 min 0 min 0 W/m 6,3 km/h (2 Bft)
15.02.2015 18:08 6,1 C 2,8 C 77 % 1013,9 hPa 0,0 l/m 0 min 0 min 0 W/m 8,4 km/h (2 Bft)
15.02.2015 18:10 6,1 C 2,8 C 77 % 1013,9 hPa 0,0 l/m 0 min 0 min 0 W/m 8,4 km/h (2 Bft)
15.02.2015 18:12 6,0 C 2,8 C 77 % 1013,9 hPa 0,0 l/m 0 min 0 min 0 W/m 10,5 km/h (2 Bft)
15.02.2015 18:14 5,9 C 2,8 C 78 % 1014,0 hPa 0,0 l/m 0 min 0 min 0 W/m 8,4 km/h (2 Bft)
15.02.2015 18:16 5,9 C 3,3 C 78 % 1014,0 hPa 0,0 l/m 0 min 0 min 0 W/m 8,4 km/h (2 Bft)
15.02.2015 18:18 5,8 C 2,8 C 78 % 1014,0 hPa 0,0 l/m 0 min 0 min 0 W/m 8,4 km/h (2 Bft)
15.02.2015 18:20 5,8 C 2,8 C 78 % 1014,1 hPa 0,0 l/m 0 min 0 min 0 W/m 8,4 km/h (2 Bft)
15.02.2015 18:22 5,7 C 2,8 C 79 % 1014,1 hPa 0,0 l/m 0 min 0 min 0 W/m 8,4 km/h (2 Bft)
15.02.2015 18:24 5,7 C 2,8 C 79 % 1014,1 hPa 0,0 l/m 0 min 0 min 0 W/m 10,5 km/h (2 Bft)
15.02.2015 18:26 5,6 C 2,8 C 79 % 1014,1 hPa 0,0 l/m 0 min 0 min 0 W/m 8,4 km/h (2 Bft)
15.02.2015 18:28 5,6 C 2,8 C 79 % 1014,1 hPa 0,0 l/m 0 min 0 min 0 W/m 8,4 km/h (2 Bft)
15.02.2015 18:30 5,5 C 2,8 C 79 % 1014,2 hPa 0,0 l/m 0 min 0 min 0 W/m 8,4 km/h (2 Bft)
15.02.2015 18:32 5,4 C 2,8 C 79 % 1014,2 hPa 0,0 l/m 0 min 0 min 0 W/m 8,4 km/h (2 Bft)
15.02.2015 18:34 5,4 C 2,8 C 80 % 1014,3 hPa 0,0 l/m 0 min 0 min 0 W/m 8,4 km/h (2 Bft)
15.02.2015 18:36 5,3 C 2,8 C 80 % 1014,3 hPa 0,0 l/m 0 min 0 min 0 W/m 8,4 km/h (2 Bft)
15.02.2015 18:38 5,3 C 2,8 C 80 % 1014,2 hPa 0,0 l/m 0 min 0 min 0 W/m 6,3 km/h (2 Bft)
15.02.2015 18:40 5,2 C 2,2 C 80 % 1014,3 hPa 0,0 l/m 0 min 0 min 0 W/m 8,4 km/h (2 Bft)
15.02.2015 18:42 5,2 C 2,2 C 80 % 1014,3 hPa 0,0 l/m 0 min 0 min 0 W/m 8,4 km/h (2 Bft)
15.02.2015 18:44 5,2 C 2,2 C 80 % 1014,3 hPa 0,0 l/m 0 min 0 min 0 W/m 8,4 km/h (2 Bft)
15.02.2015 18:46 5,2 C 2,2 C 80 % 1014,4 hPa 0,0 l/m 0 min 0 min 0 W/m 8,4 km/h (2 Bft)
15.02.2015 18:48 5,1 C 2,2 C 80 % 1014,4 hPa 0,0 l/m 0 min 0 min 0 W/m 8,4 km/h (2 Bft)
15.02.2015 18:50 5,1 C 2,2 C 80 % 1014,5 hPa 0,0 l/m 0 min 0 min 0 W/m 8,4 km/h (2 Bft)
15.02.2015 18:52 5,0 C 2,2 C 80 % 1014,5 hPa 0,0 l/m 0 min 0 min 0 W/m 10,5 km/h (2 Bft)
15.02.2015 18:54 4,9 C 2,2 C 81 % 1014,5 hPa 0,0 l/m 0 min 0 min 0 W/m 10,5 km/h (2 Bft)
15.02.2015 18:56 4,9 C 2,2 C 81 % 1014,4 hPa 0,0 l/m 0 min 0 min 0 W/m 8,4 km/h (2 Bft)
15.02.2015 18:58 4,8 C 2,2 C 81 % 1014,4 hPa 0,0 l/m 0 min 0 min 0 W/m 8,4 km/h (2 Bft)
15.02.2015 19:00 4,8 C 2,2 C 81 % 1014,5 hPa 0,0 l/m 0 min 0 min 0 W/m 8,4 km/h (2 Bft)
15.02.2015 19:02 4,7 C 2,2 C 81 % 1014,5 hPa 0,0 l/m 0 min 0 min 0 W/m 8,4 km/h (2 Bft)
15.02.2015 19:04 4,7 C 1,7 C 81 % 1014,5 hPa 0,0 l/m 0 min 0 min 0 W/m 8,4 km/h (2 Bft)
15.02.2015 19:06 4,6 C 1,7 C 82 % 1014,6 hPa 0,0 l/m 0 min 0 min 0 W/m 6,3 km/h (2 Bft)
15.02.2015 19:08 4,6 C 1,7 C 82 % 1014,6 hPa 0,0 l/m 0 min 0 min 0 W/m 8,4 km/h (2 Bft)
15.02.2015 19:10 4,5 C 2,2 C 82 % 1014,6 hPa 0,0 l/m 0 min 0 min 0 W/m 10,5 km/h (2 Bft)
15.02.2015 19:12 4,4 C 2,2 C 82 % 1014,7 hPa 0,0 l/m 0 min 0 min 0 W/m 8,4 km/h (2 Bft)
15.02.2015 19:14 4,4 C 2,2 C 83 % 1014,7 hPa 0,0 l/m 0 min 0 min 0 W/m 10,5 km/h (2 Bft)
15.02.2015 19:16 4,4 C 2,2 C 83 % 1014,7 hPa 0,0 l/m 0 min 0 min 0 W/m 10,5 km/h (2 Bft)
15.02.2015 19:18 4,4 C 2,2 C 83 % 1014,8 hPa 0,0 l/m 0 min 0 min 0 W/m 8,4 km/h (2 Bft)
15.02.2015 19:20 4,3 C 2,2 C 83 % 1014,8 hPa 0,0 l/m 0 min 0 min 0 W/m 8,4 km/h (2 Bft)
15.02.2015 19:22 4,3 C 2,2 C 83 % 1014,8 hPa 0,0 l/m 0 min 0 min 0 W/m 8,4 km/h (2 Bft)
15.02.2015 19:24 4,3 C 2,2 C 83 % 1014,9 hPa 0,0 l/m 0 min 0 min 0 W/m 6,3 km/h (2 Bft)
15.02.2015 19:26 4,2 C 2,2 C 83 % 1014,8 hPa 0,0 l/m 0 min 0 min 0 W/m 8,4 km/h (2 Bft)
15.02.2015 19:28 4,2 C 2,2 C 83 % 1014,9 hPa 0,0 l/m 0 min 0 min 0 W/m 8,4 km/h (2 Bft)
15.02.2015 19:30 4,2 C 1,7 C 83 % 1014,9 hPa 0,0 l/m 0 min 0 min 0 W/m 8,4 km/h (2 Bft)
15.02.2015 19:32 4,1 C 1,7 C 83 % 1014,9 hPa 0,0 l/m 0 min 0 min 0 W/m 10,5 km/h (2 Bft)
15.02.2015 19:34 4,1 C 1,7 C 83 % 1014,9 hPa 0,0 l/m 0 min 0 min 0 W/m 8,4 km/h (2 Bft)
15.02.2015 19:36 4,1 C 1,7 C 83 % 1014,9 hPa 0,0 l/m 0 min 0 min 0 W/m 10,5 km/h (2 Bft)
15.02.2015 19:38 4,0 C 1,7 C 84 % 1014,9 hPa 0,0 l/m 0 min 0 min 0 W/m 8,4 km/h (2 Bft)
15.02.2015 19:40 3,9 C 1,7 C 84 % 1014,9 hPa 0,0 l/m 0 min 0 min 0 W/m 10,5 km/h (2 Bft)
15.02.2015 19:42 3,9 C 1,7 C 84 % 1015,0 hPa 0,0 l/m 0 min 0 min 0 W/m 10,5 km/h (2 Bft)
15.02.2015 19:44 3,9 C 1,7 C 84 % 1015,0 hPa 0,0 l/m 0 min 0 min 0 W/m 8,4 km/h (2 Bft)
15.02.2015 19:46 3,9 C 1,7 C 84 % 1015,0 hPa 0,0 l/m 0 min 0 min 0 W/m 10,5 km/h (2 Bft)
15.02.2015 19:48 3,9 C 1,7 C 84 % 1015,0 hPa 0,0 l/m 0 min 0 min 0 W/m 10,5 km/h (2 Bft)
15.02.2015 19:50 3,8 C 1,7 C 84 % 1015,0 hPa 0,0 l/m 0 min 0 min 0 W/m 10,5 km/h (2 Bft)
15.02.2015 19:52 3,8 C 1,7 C 84 % 1015,0 hPa 0,0 l/m 0 min 0 min 0 W/m 6,3 km/h (2 Bft)
15.02.2015 19:54 3,8 C 1,7 C 84 % 1015,0 hPa 0,0 l/m 0 min 0 min 0 W/m 8,4 km/h (2 Bft)
15.02.2015 19:56 3,8 C 1,7 C 85 % 1015,0 hPa 0,0 l/m 0 min 0 min 0 W/m 8,4 km/h (2 Bft)
15.02.2015 19:58 3,7 C 1,7 C 85 % 1015,0 hPa 0,0 l/m 0 min 0 min 0 W/m 8,4 km/h (2 Bft)
15.02.2015 20:00 3,7 C 1,7 C 84 % 1015,0 hPa 0,0 l/m 0 min 0 min 0 W/m 8,4 km/h (2 Bft)
15.02.2015 20:02 3,7 C 1,7 C 84 % 1015,0 hPa 0,0 l/m 0 min 0 min 0 W/m 8,4 km/h (2 Bft)
15.02.2015 20:04 3,7 C 1,7 C 84 % 1015,0 hPa 0,0 l/m 0 min 0 min 0 W/m 6,3 km/h (2 Bft)
15.02.2015 20:06 3,6 C 1,1 C 84 % 1015,0 hPa 0,0 l/m 0 min 0 min 0 W/m 6,3 km/h (2 Bft)
15.02.2015 20:08 3,6 C 1,1 C 84 % 1015,0 hPa 0,0 l/m 0 min 0 min 0 W/m 6,3 km/h (2 Bft)
15.02.2015 20:10 3,5 C 1,1 C 84 % 1015,0 hPa 0,0 l/m 0 min 0 min 0 W/m 6,3 km/h (2 Bft)
15.02.2015 20:12 3,5 C 1,1 C 84 % 1015,0 hPa 0,0 l/m 0 min 0 min 0 W/m 6,3 km/h (2 Bft)
15.02.2015 20:14 3,4 C 1,1 C 85 % 1015,0 hPa 0,0 l/m 0 min 0 min 0 W/m 6,3 km/h (2 Bft)
15.02.2015 20:16 3,4 C 0,6 C 85 % 1015,0 hPa 0,0 l/m 0 min 0 min 0 W/m 6,3 km/h (2 Bft)
15.02.2015 20:18 3,3 C 0,6 C 85 % 1015,0 hPa 0,0 l/m 0 min 0 min 0 W/m 8,4 km/h (2 Bft)
15.02.2015 20:20 3,3 C 1,1 C 85 % 1015,1 hPa 0,0 l/m 0 min 0 min 0 W/m 6,3 km/h (2 Bft)
15.02.2015 20:22 3,3 C 1,1 C 85 % 1015,1 hPa 0,0 l/m 0 min 0 min 0 W/m 6,3 km/h (2 Bft)
15.02.2015 20:24 3,2 C 1,1 C 85 % 1015,1 hPa 0,0 l/m 0 min 0 min 0 W/m 6,3 km/h (2 Bft)
15.02.2015 20:26 3,2 C 0,6 C 85 % 1015,1 hPa 0,0 l/m 0 min 0 min 0 W/m 6,3 km/h (2 Bft)
15.02.2015 20:28 3,2 C 0,6 C 85 % 1015,1 hPa 0,0 l/m 0 min 0 min 0 W/m 8,4 km/h (2 Bft)
15.02.2015 20:30 3,2 C 0,6 C 85 % 1015,1 hPa 0,0 l/m 0 min 0 min 0 W/m 6,3 km/h (2 Bft)
15.02.2015 20:32 3,1 C 0,6 C 85 % 1015,1 hPa 0,0 l/m 0 min 0 min 0 W/m 6,3 km/h (2 Bft)
15.02.2015 20:34 3,1 C 0,6 C 85 % 1015,1 hPa 0,0 l/m 0 min 0 min 0 W/m 6,3 km/h (2 Bft)
15.02.2015 20:36 3,0 C 0,6 C 85 % 1015,1 hPa 0,0 l/m 0 min 0 min 0 W/m 6,3 km/h (2 Bft)
15.02.2015 20:38 3,0 C 0,0 C 85 % 1015,1 hPa 0,0 l/m 0 min 0 min 0 W/m 6,3 km/h (2 Bft)
15.02.2015 20:40 2,9 C 0,0 C 85 % 1015,1 hPa 0,0 l/m 0 min 0 min 0 W/m 4,2 km/h (1 Bft)
15.02.2015 20:42 2,9 C 0,0 C 85 % 1015,1 hPa 0,0 l/m 0 min 0 min 0 W/m 4,2 km/h (1 Bft)
15.02.2015 20:44 2,9 C 0,0 C 85 % 1015,2 hPa 0,0 l/m 0 min 0 min 0 W/m 4,2 km/h (1 Bft)
15.02.2015 20:46 2,8 C 0,0 C 85 % 1015,2 hPa 0,0 l/m 0 min 0 min 0 W/m 6,3 km/h (2 Bft)
15.02.2015 20:48 2,8 C 0,0 C 85 % 1015,2 hPa 0,0 l/m 0 min 0 min 0 W/m 4,2 km/h (1 Bft)
15.02.2015 20:50 2,7 C -0,6 C 85 % 1015,2 hPa 0,0 l/m 0 min 0 min 0 W/m 4,2 km/h (1 Bft)
15.02.2015 20:52 2,7 C -0,6 C 85 % 1015,2 hPa 0,0 l/m 0 min 0 min 0 W/m 4,2 km/h (1 Bft)
15.02.2015 20:54 2,7 C -0,6 C 85 % 1015,2 hPa 0,0 l/m 0 min 0 min 0 W/m 4,2 km/h (1 Bft)
15.02.2015 20:56 2,6 C -0,6 C 85 % 1015,3 hPa 0,0 l/m 0 min 0 min 0 W/m 4,2 km/h (1 Bft)
15.02.2015 20:58 2,6 C -0,6 C 85 % 1015,3 hPa 0,0 l/m 0 min 0 min 0 W/m 4,2 km/h (1 Bft)
15.02.2015 21:00 2,5 C -0,6 C 85 % 1015,3 hPa 0,0 l/m 0 min 0 min 0 W/m 4,2 km/h (1 Bft)
15.02.2015 21:02 2,4 C -0,6 C 85 % 1015,2 hPa 0,0 l/m 0 min 0 min 0 W/m 4,2 km/h (1 Bft)
15.02.2015 21:04 2,4 C -0,6 C 85 % 1015,3 hPa 0,0 l/m 0 min 0 min 0 W/m 4,2 km/h (1 Bft)
15.02.2015 21:06 2,4 C -0,6 C 85 % 1015,3 hPa 0,0 l/m 0 min 0 min 0 W/m 4,2 km/h (1 Bft)
15.02.2015 21:08 2,3 C -1,1 C 85 % 1015,4 hPa 0,0 l/m 0 min 0 min 0 W/m 2,1 km/h (1 Bft)
15.02.2015 21:10 2,3 C -1,1 C 85 % 1015,4 hPa 0,0 l/m 0 min 0 min 0 W/m 2,1 km/h (1 Bft)
15.02.2015 21:12 2,2 C -1,1 C 85 % 1015,3 hPa 0,0 l/m 0 min 0 min 0 W/m 4,2 km/h (1 Bft)
15.02.2015 21:14 2,2 C -1,1 C 85 % 1015,4 hPa 0,0 l/m 0 min 0 min 0 W/m 4,2 km/h (1 Bft)
15.02.2015 21:16 2,1 C -1,1 C 85 % 1015,4 hPa 0,0 l/m 0 min 0 min 0 W/m 4,2 km/h (1 Bft)
15.02.2015 21:18 2,1 C -1,1 C 85 % 1015,4 hPa 0,0 l/m 0 min 0 min 0 W/m 4,2 km/h (1 Bft)
15.02.2015 21:20 2,0 C -1,1 C 85 % 1015,4 hPa 0,0 l/m 0 min 0 min 0 W/m 6,3 km/h (2 Bft)
15.02.2015 21:22 1,9 C -1,1 C 85 % 1015,4 hPa 0,0 l/m 0 min 0 min 0 W/m 4,2 km/h (1 Bft)
15.02.2015 21:24 1,9 C -1,1 C 85 % 1015,4 hPa 0,0 l/m 0 min 0 min 0 W/m 4,2 km/h (1 Bft)
15.02.2015 21:26 1,9 C -1,1 C 85 % 1015,4 hPa 0,0 l/m 0 min 0 min 0 W/m 4,2 km/h (1 Bft)
15.02.2015 21:28 1,8 C -1,1 C 85 % 1015,4 hPa 0,0 l/m 0 min 0 min 0 W/m 4,2 km/h (1 Bft)
15.02.2015 21:30 1,8 C -1,1 C 85 % 1015,4 hPa 0,0 l/m 0 min 0 min 0 W/m 4,2 km/h (1 Bft)
15.02.2015 21:32 1,7 C -1,1 C 85 % 1015,4 hPa 0,0 l/m 0 min 0 min 0 W/m 4,2 km/h (1 Bft)
15.02.2015 21:34 1,7 C -1,1 C 85 % 1015,5 hPa 0,0 l/m 0 min 0 min 0 W/m 4,2 km/h (1 Bft)
15.02.2015 21:36 1,6 C -1,1 C 85 % 1015,5 hPa 0,0 l/m 0 min 0 min 0 W/m 4,2 km/h (1 Bft)
15.02.2015 21:38 1,6 C -1,7 C 85 % 1015,5 hPa 0,0 l/m 0 min 0 min 0 W/m 4,2 km/h (1 Bft)
15.02.2015 21:40 1,5 C -1,7 C 85 % 1015,5 hPa 0,0 l/m 0 min 0 min 0 W/m 4,2 km/h (1 Bft)
15.02.2015 21:42 1,4 C -1,7 C 85 % 1015,5 hPa 0,0 l/m 0 min 0 min 0 W/m 4,2 km/h (1 Bft)
15.02.2015 21:44 1,4 C -1,7 C 85 % 1015,6 hPa 0,0 l/m 0 min 0 min 0 W/m 4,2 km/h (1 Bft)
15.02.2015 21:46 1,4 C -1,7 C 86 % 1015,6 hPa 0,0 l/m 0 min 0 min 0 W/m 4,2 km/h (1 Bft)
15.02.2015 21:48 1,3 C -1,7 C 86 % 1015,5 hPa 0,0 l/m 0 min 0 min 0 W/m 2,1 km/h (1 Bft)
15.02.2015 21:50 1,3 C -1,7 C 86 % 1015,5 hPa 0,0 l/m 0 min 0 min 0 W/m 2,1 km/h (1 Bft)
15.02.2015 21:52 1,3 C -1,7 C 86 % 1015,6 hPa 0,0 l/m 0 min 0 min 0 W/m 2,1 km/h (1 Bft)
15.02.2015 21:54 1,2 C -1,7 C 86 % 1015,6 hPa 0,0 l/m 0 min 0 min 0 W/m 4,2 km/h (1 Bft)
15.02.2015 21:56 1,2 C -1,7 C 86 % 1015,6 hPa 0,0 l/m 0 min 0 min 0 W/m 4,2 km/h (1 Bft)
15.02.2015 21:58 1,2 C -1,7 C 86 % 1015,6 hPa 0,0 l/m 0 min 0 min 0 W/m 2,1 km/h (1 Bft)
15.02.2015 22:00 1,1 C -1,7 C 86 % 1015,7 hPa 0,0 l/m 0 min 0 min 0 W/m 2,1 km/h (1 Bft)
15.02.2015 22:02 1,1 C -1,7 C 86 % 1015,6 hPa 0,0 l/m 0 min 0 min 0 W/m 2,1 km/h (1 Bft)
15.02.2015 22:04 1,1 C -1,7 C 86 % 1015,6 hPa 0,0 l/m 0 min 0 min 0 W/m 0,0 km/h (0 Bft)
15.02.2015 22:06 1,1 C -1,7 C 86 % 1015,6 hPa 0,0 l/m 0 min 0 min 0 W/m 0,0 km/h (0 Bft)
15.02.2015 22:08 1,0 C -1,7 C 86 % 1015,7 hPa 0,0 l/m 0 min 0 min 0 W/m 2,1 km/h (1 Bft)
15.02.2015 22:10 0,9 C -1,7 C 86 % 1015,7 hPa 0,0 l/m 0 min 0 min 0 W/m 2,1 km/h (1 Bft)
15.02.2015 22:12 0,9 C -1,7 C 86 % 1015,7 hPa 0,0 l/m 0 min 0 min 0 W/m 2,1 km/h (1 Bft)
15.02.2015 22:14 0,9 C -1,7 C 86 % 1015,6 hPa 0,0 l/m 0 min 0 min 0 W/m 2,1 km/h (1 Bft)
15.02.2015 22:16 0,8 C -1,7 C 86 % 1015,6 hPa 0,0 l/m 0 min 0 min 0 W/m 2,1 km/h (1 Bft)
15.02.2015 22:18 0,8 C -1,7 C 86 % 1015,6 hPa 0,0 l/m 0 min 0 min 0 W/m 2,1 km/h (1 Bft)
15.02.2015 22:20 0,8 C -2,2 C 86 % 1015,6 hPa 0,0 l/m 0 min 0 min 0 W/m 2,1 km/h (1 Bft)
15.02.2015 22:22 0,7 C -2,2 C 86 % 1015,6 hPa 0,0 l/m 0 min 0 min 0 W/m 2,1 km/h (1 Bft)
15.02.2015 22:24 0,7 C -2,2 C 86 % 1015,6 hPa 0,0 l/m 0 min 0 min 0 W/m 2,1 km/h (1 Bft)
15.02.2015 22:26 0,7 C -2,2 C 86 % 1015,6 hPa 0,0 l/m 0 min 0 min 0 W/m 0,0 km/h (0 Bft)
15.02.2015 22:28 0,6 C -2,2 C 86 % 1015,6 hPa 0,0 l/m 0 min 0 min 0 W/m 0,0 km/h (0 Bft)
15.02.2015 22:30 0,5 C -2,2 C 86 % 1015,6 hPa 0,0 l/m 0 min 0 min 0 W/m 2,1 km/h (1 Bft)
15.02.2015 22:32 0,5 C -2,2 C 86 % 1015,6 hPa 0,0 l/m 0 min 0 min 0 W/m 2,1 km/h (1 Bft)
15.02.2015 22:34 0,5 C -2,2 C 86 % 1015,6 hPa 0,0 l/m 0 min 0 min 0 W/m 2,1 km/h (1 Bft)
15.02.2015 22:36 0,5 C -2,2 C 86 % 1015,7 hPa 0,0 l/m 0 min 0 min 0 W/m 2,1 km/h (1 Bft)
15.02.2015 22:38 0,5 C -2,2 C 86 % 1015,6 hPa 0,0 l/m 0 min 0 min 0 W/m 4,2 km/h (1 Bft)
15.02.2015 22:40 0,4 C -2,2 C 86 % 1015,7 hPa 0,0 l/m 0 min 0 min 0 W/m 4,2 km/h (1 Bft)
15.02.2015 22:42 0,4 C -2,2 C 86 % 1015,7 hPa 0,0 l/m 0 min 0 min 0 W/m 6,3 km/h (2 Bft)
15.02.2015 22:44 0,4 C -2,2 C 86 % 1015,7 hPa 0,0 l/m 0 min 0 min 0 W/m 4,2 km/h (1 Bft)
15.02.2015 22:46 0,3 C -2,2 C 87 % 1015,7 hPa 0,0 l/m 0 min 0 min 0 W/m 4,2 km/h (1 Bft)
15.02.2015 22:48 0,3 C -2,2 C 87 % 1015,7 hPa 0,0 l/m 0 min 0 min 0 W/m 2,1 km/h (1 Bft)
15.02.2015 22:50 0,3 C -2,2 C 87 % 1015,7 hPa 0,0 l/m 0 min 0 min 0 W/m 2,1 km/h (1 Bft)
15.02.2015 22:52 0,2 C -2,2 C 87 % 1015,8 hPa 0,0 l/m 0 min 0 min 0 W/m 2,1 km/h (1 Bft)
15.02.2015 22:54 0,2 C -2,2 C 87 % 1015,8 hPa 0,0 l/m 0 min 0 min 0 W/m 2,1 km/h (1 Bft)
15.02.2015 22:56 0,2 C -2,2 C 87 % 1015,7 hPa 0,0 l/m 0 min 0 min 0 W/m 2,1 km/h (1 Bft)
15.02.2015 22:58 0,2 C -2,2 C 87 % 1015,7 hPa 0,0 l/m 0 min 0 min 0 W/m 0,0 km/h (0 Bft)
15.02.2015 23:00 0,1 C -2,2 C 87 % 1015,7 hPa 0,0 l/m 0 min 0 min 0 W/m 0,0 km/h (0 Bft)
15.02.2015 23:02 0,1 C -2,2 C 87 % 1015,7 hPa 0,0 l/m 0 min 0 min 0 W/m 0,0 km/h (0 Bft)
15.02.2015 23:04 0,1 C -2,2 C 87 % 1015,8 hPa 0,0 l/m 0 min 0 min 0 W/m 0,0 km/h (0 Bft)
15.02.2015 23:06 0,1 C -2,2 C 87 % 1015,7 hPa 0,0 l/m 0 min 0 min 0 W/m 0,0 km/h (0 Bft)
15.02.2015 23:08 0,0 C -2,2 C 87 % 1015,8 hPa 0,0 l/m 0 min 0 min 0 W/m 0,0 km/h (0 Bft)
15.02.2015 23:10 0,0 C -2,2 C 87 % 1015,7 hPa 0,0 l/m 0 min 0 min 0 W/m 2,1 km/h (1 Bft)
15.02.2015 23:12 0,0 C -2,2 C 88 % 1015,7 hPa 0,0 l/m 0 min 0 min 0 W/m 2,1 km/h (1 Bft)
15.02.2015 23:14 -0,1 C -2,2 C 88 % 1015,7 hPa 0,0 l/m 0 min 0 min 0 W/m 2,1 km/h (1 Bft)
15.02.2015 23:16 -0,1 C -2,2 C 88 % 1015,7 hPa 0,0 l/m 0 min 0 min 0 W/m 2,1 km/h (1 Bft)
15.02.2015 23:18 -0,1 C -2,8 C 88 % 1015,7 hPa 0,0 l/m 0 min 0 min 0 W/m 2,1 km/h (1 Bft)
15.02.2015 23:20 -0,1 C -2,8 C 88 % 1015,7 hPa 0,0 l/m 0 min 0 min 0 W/m 2,1 km/h (1 Bft)
15.02.2015 23:22 -0,1 C -2,8 C 88 % 1015,7 hPa 0,0 l/m 0 min 0 min 0 W/m 2,1 km/h (1 Bft)
15.02.2015 23:24 -0,2 C -2,8 C 88 % 1015,7 hPa 0,0 l/m 0 min 0 min 0 W/m 4,2 km/h (1 Bft)
15.02.2015 23:26 -0,2 C -2,8 C 88 % 1015,7 hPa 0,0 l/m 0 min 0 min 0 W/m 4,2 km/h (1 Bft)
15.02.2015 23:28 -0,2 C -2,8 C 88 % 1015,7 hPa 0,0 l/m 0 min 0 min 0 W/m 2,1 km/h (1 Bft)
15.02.2015 23:30 -0,2 C -2,8 C 88 % 1015,7 hPa 0,0 l/m 0 min 0 min 0 W/m 2,1 km/h (1 Bft)
15.02.2015 23:32 -0,3 C -2,8 C 88 % 1015,7 hPa 0,0 l/m 0 min 0 min 0 W/m 0,0 km/h (0 Bft)
15.02.2015 23:34 -0,3 C -2,8 C 88 % 1015,7 hPa 0,0 l/m 0 min 0 min 0 W/m 0,0 km/h (0 Bft)
15.02.2015 23:36 -0,3 C -2,8 C 88 % 1015,8 hPa 0,0 l/m 0 min 0 min 0 W/m 0,0 km/h (0 Bft)
15.02.2015 23:38 -0,3 C -2,8 C 88 % 1015,9 hPa 0,0 l/m 0 min 0 min 0 W/m 0,0 km/h (0 Bft)
15.02.2015 23:40 -0,4 C -2,8 C 88 % 1015,9 hPa 0,0 l/m 0 min 0 min 0 W/m 0,0 km/h (0 Bft)
15.02.2015 23:42 -0,4 C -2,8 C 89 % 1015,8 hPa 0,0 l/m 0 min 0 min 0 W/m 2,1 km/h (1 Bft)
15.02.2015 23:44 -0,4 C -2,8 C 89 % 1015,9 hPa 0,0 l/m 0 min 0 min 0 W/m 2,1 km/h (1 Bft)
15.02.2015 23:46 -0,4 C -2,8 C 89 % 1015,9 hPa 0,0 l/m 0 min 0 min 0 W/m 2,1 km/h (1 Bft)
15.02.2015 23:48 -0,4 C -2,8 C 89 % 1015,8 hPa 0,0 l/m 0 min 0 min 0 W/m 4,2 km/h (1 Bft)
15.02.2015 23:50 -0,5 C -2,8 C 89 % 1015,8 hPa 0,0 l/m 0 min 0 min 0 W/m 6,3 km/h (2 Bft)
15.02.2015 23:52 -0,5 C -2,8 C 89 % 1015,8 hPa 0,0 l/m 0 min 0 min 0 W/m 6,3 km/h (2 Bft)
15.02.2015 23:54 -0,6 C -2,8 C 89 % 1015,8 hPa 0,0 l/m 0 min 0 min 0 W/m 4,2 km/h (1 Bft)
15.02.2015 23:56 -0,6 C -2,8 C 89 % 1015,8 hPa 0,0 l/m 0 min 0 min 0 W/m 6,3 km/h (2 Bft)
15.02.2015 23:58 -0,6 C -2,8 C 89 % 1015,8 hPa 0,0 l/m 0 min 0 min 0 W/m 6,3 km/h (2 Bft)
_ Min-Zeit 23:54 23:18 14:46 01:58 - - - - 22:04
Minimum _ -0,6 C -2,8 C 65 % 1009,7 hPa - - - - 0,0 km/h (0 Bft)
_ Max-Zeit 15:22 14:24 09:52 23:38 00:00 08:00 00:00 12:36 02:50
Maximum _ 9,9 C 7,8 C 94 % 1015,9 hPa 0,0 l/m 2 min 0 min 434 W/m 20,9 km/h
O (4 Bft)
Durchschnitt _ 4,3 C 2,1 C 82 % 1012,6 hPa #0,0 l/m #8:34 h #0 min. 240 W/m 8,6 km/h (2 Bft)
© 2015 W. Hausmann